<?xml version="1.0" encoding="UTF-8"?><gpx version="1.1" xmlns:xsd="http://www.w3.org/2001/XMLSchema" xmlns:xsi="http://www.w3.org/2001/XMLSchema-instance" creator="NotARubicon.com All Rights Reserved. https://www.notarubicon.com" xsi:schemaLocation="http://www.topografix.com/GPX/1/1 http://www.topografix.com/GPX/1/1/gpx.xsd http://www.magellangps.com/mgnext/0/2 http://www.magellangps.com/mgnext/0/2/mgn.xsd http://www.groundspeak.com/cache/1/0 http://www.groundspeak.com/cache/1/0/cache.xsd" xmlns="http://www.topografix.com/GPX/1/1">
<trk>
    <name>Husky to hinkley</name>
    <desc></desc>
    <extensions>
      <mgn:extensions xmlns:mgn="http://www.magellangps.com/mgnext/0/2">
        <mgn:uuid>18e4e688-f7e7-48fe-a882-1d5c639b262f</mgn:uuid>
        <mgn:proplist>
          <mgn:prop key="Vehicle">9929</mgn:prop>
          <mgn:prop key="VehicleType">,ATV</mgn:prop>
          <mgn:prop key="WD">Some</mgn:prop>
          <mgn:prop key="LO">Some</mgn:prop>
          <mgn:prop key="DIRT">Solid;</mgn:prop>
          <mgn:prop key="T_MUD"></mgn:prop>
          <mgn:prop key="T_SAND"></mgn:prop>
          <mgn:prop key="T_SNOW"></mgn:prop>
          <mgn:prop key="T_ICE"></mgn:prop>
          <mgn:prop key="T_WATER"></mgn:prop>
          <mgn:prop key="T_ROCK"></mgn:prop>
          <mgn:prop key="PITCH"></mgn:prop>
          <mgn:prop key="ROLL"></mgn:prop>
          <mgn:prop key="MAGELLAN_OFFROAD_KEY">0</mgn:prop>
          <mgn:prop key="Author">NotARubicon</mgn:prop>
          <mgn:prop key="InstagramUpdate">True</mgn:prop>
          <mgn:prop key="MaxElevation">1035</mgn:prop>
          <mgn:prop key="MinElevation">625</mgn:prop>
          <mgn:prop key="ElevationChange">-395.80078</mgn:prop>
          <mgn:prop key="RecordedTime">3535</mgn:prop>
          <mgn:prop key="Length">26449.666</mgn:prop>
          <mgn:prop key="Type">Trail</mgn:prop>
          <mgn:prop key="Type2">Trail</mgn:prop>
        </mgn:proplist>
      </mgn:extensions>
    </extensions>

    <trkseg>
      <trkpt lat="35.212264" lon="-117.317751">
        <ele>1035.398438</ele>
        <time>2021-02-06T23:52:22.000Z</time>
      </trkpt>
      <trkpt lat="35.212156" lon="-117.317844">
        <ele>1034.097656</ele>
        <time>2021-02-06T23:52:33.000Z</time>
      </trkpt>
      <trkpt lat="35.212114" lon="-117.317867">
        <ele>1034.296875</ele>
        <time>2021-02-06T23:52:34.000Z</time>
      </trkpt>
      <trkpt lat="35.211994" lon="-117.317942">
        <ele>1034.296875</ele>
        <time>2021-02-06T23:52:37.000Z</time>
      </trkpt>
      <trkpt lat="35.211959" lon="-117.317972">
        <ele>1034.000000</ele>
        <time>2021-02-06T23:52:39.000Z</time>
      </trkpt>
      <trkpt lat="35.211891" lon="-117.318046">
        <ele>1033.500000</ele>
        <time>2021-02-06T23:52:40.000Z</time>
      </trkpt>
      <trkpt lat="35.211861" lon="-117.31809">
        <ele>1033.296875</ele>
        <time>2021-02-06T23:52:41.000Z</time>
      </trkpt>
      <trkpt lat="35.211717" lon="-117.318323">
        <ele>1032.500000</ele>
        <time>2021-02-06T23:52:46.000Z</time>
      </trkpt>
      <trkpt lat="35.211651" lon="-117.318445">
        <ele>1032.500000</ele>
        <time>2021-02-06T23:52:49.000Z</time>
      </trkpt>
      <trkpt lat="35.211629" lon="-117.318476">
        <ele>1032.296875</ele>
        <time>2021-02-06T23:52:51.000Z</time>
      </trkpt>
      <trkpt lat="35.211584" lon="-117.318542">
        <ele>1032.199219</ele>
        <time>2021-02-06T23:52:52.000Z</time>
      </trkpt>
      <trkpt lat="35.211563" lon="-117.31858">
        <ele>1032.199219</ele>
        <time>2021-02-06T23:52:54.000Z</time>
      </trkpt>
      <trkpt lat="35.211527" lon="-117.318662">
        <ele>1032.097656</ele>
        <time>2021-02-06T23:52:55.000Z</time>
      </trkpt>
      <trkpt lat="35.211447" lon="-117.318851">
        <ele>1032.898438</ele>
        <time>2021-02-06T23:53:00.000Z</time>
      </trkpt>
      <trkpt lat="35.211431" lon="-117.318879">
        <ele>1032.796875</ele>
        <time>2021-02-06T23:53:03.000Z</time>
      </trkpt>
      <trkpt lat="35.211378" lon="-117.318949">
        <ele>1032.699219</ele>
        <time>2021-02-06T23:53:04.000Z</time>
      </trkpt>
      <trkpt lat="35.21136" lon="-117.318962">
        <ele>1032.699219</ele>
        <time>2021-02-06T23:53:07.000Z</time>
      </trkpt>
      <trkpt lat="35.21129" lon="-117.31897">
        <ele>1032.699219</ele>
        <time>2021-02-06T23:53:08.000Z</time>
      </trkpt>
      <trkpt lat="35.211259" lon="-117.318958">
        <ele>1032.097656</ele>
        <time>2021-02-06T23:53:10.000Z</time>
      </trkpt>
      <trkpt lat="35.211189" lon="-117.318909">
        <ele>1032.000000</ele>
        <time>2021-02-06T23:53:11.000Z</time>
      </trkpt>
      <trkpt lat="35.211154" lon="-117.318876">
        <ele>1031.796875</ele>
        <time>2021-02-06T23:53:13.000Z</time>
      </trkpt>
      <trkpt lat="35.211094" lon="-117.318793">
        <ele>1031.500000</ele>
        <time>2021-02-06T23:53:14.000Z</time>
      </trkpt>
      <trkpt lat="35.21107" lon="-117.318744">
        <ele>1031.500000</ele>
        <time>2021-02-06T23:53:15.000Z</time>
      </trkpt>
      <trkpt lat="35.211053" lon="-117.318691">
        <ele>1031.398438</ele>
        <time>2021-02-06T23:53:16.000Z</time>
      </trkpt>
      <trkpt lat="35.211028" lon="-117.318579">
        <ele>1031.500000</ele>
        <time>2021-02-06T23:53:18.000Z</time>
      </trkpt>
      <trkpt lat="35.211022" lon="-117.318523">
        <ele>1031.500000</ele>
        <time>2021-02-06T23:53:19.000Z</time>
      </trkpt>
      <trkpt lat="35.211011" lon="-117.318287">
        <ele>1031.597656</ele>
        <time>2021-02-06T23:53:23.000Z</time>
      </trkpt>
      <trkpt lat="35.210989" lon="-117.317942">
        <ele>1031.199219</ele>
        <time>2021-02-06T23:53:28.000Z</time>
      </trkpt>
      <trkpt lat="35.210978" lon="-117.317872">
        <ele>1031.199219</ele>
        <time>2021-02-06T23:53:29.000Z</time>
      </trkpt>
      <trkpt lat="35.21093" lon="-117.317642">
        <ele>1030.796875</ele>
        <time>2021-02-06T23:53:33.000Z</time>
      </trkpt>
      <trkpt lat="35.210926" lon="-117.317598">
        <ele>1030.500000</ele>
        <time>2021-02-06T23:53:35.000Z</time>
      </trkpt>
      <trkpt lat="35.210925" lon="-117.317512">
        <ele>1030.398438</ele>
        <time>2021-02-06T23:53:36.000Z</time>
      </trkpt>
      <trkpt lat="35.210921" lon="-117.317472">
        <ele>1030.000000</ele>
        <time>2021-02-06T23:53:39.000Z</time>
      </trkpt>
      <trkpt lat="35.210896" lon="-117.317388">
        <ele>1030.199219</ele>
        <time>2021-02-06T23:53:40.000Z</time>
      </trkpt>
      <trkpt lat="35.210883" lon="-117.317357">
        <ele>1029.898438</ele>
        <time>2021-02-06T23:53:42.000Z</time>
      </trkpt>
      <trkpt lat="35.210837" lon="-117.317287">
        <ele>1029.597656</ele>
        <time>2021-02-06T23:53:43.000Z</time>
      </trkpt>
      <trkpt lat="35.210677" lon="-117.317063">
        <ele>1028.898438</ele>
        <time>2021-02-06T23:53:48.000Z</time>
      </trkpt>
      <trkpt lat="35.21059" lon="-117.316957">
        <ele>1028.898438</ele>
        <time>2021-02-06T23:53:51.000Z</time>
      </trkpt>
      <trkpt lat="35.210167" lon="-117.316488">
        <ele>1027.199219</ele>
        <time>2021-02-06T23:54:03.000Z</time>
      </trkpt>
      <trkpt lat="35.210168" lon="-117.31649">
        <ele>1025.796875</ele>
        <time>2021-02-06T23:54:19.000Z</time>
      </trkpt>
      <trkpt lat="35.21008" lon="-117.316372">
        <ele>1025.796875</ele>
        <time>2021-02-06T23:54:20.000Z</time>
      </trkpt>
      <trkpt lat="35.209661" lon="-117.31575">
        <ele>1024.296875</ele>
        <time>2021-02-06T23:54:29.000Z</time>
      </trkpt>
      <trkpt lat="35.209519" lon="-117.315509">
        <ele>1023.796875</ele>
        <time>2021-02-06T23:54:33.000Z</time>
      </trkpt>
      <trkpt lat="35.20936" lon="-117.315171">
        <ele>1023.097656</ele>
        <time>2021-02-06T23:54:39.000Z</time>
      </trkpt>
      <trkpt lat="35.209163" lon="-117.314616">
        <ele>1021.296875</ele>
        <time>2021-02-06T23:54:48.000Z</time>
      </trkpt>
      <trkpt lat="35.208954" lon="-117.31397">
        <ele>1018.796875</ele>
        <time>2021-02-06T23:54:58.000Z</time>
      </trkpt>
      <trkpt lat="35.208923" lon="-117.313905">
        <ele>1018.699219</ele>
        <time>2021-02-06T23:54:59.000Z</time>
      </trkpt>
      <trkpt lat="35.208889" lon="-117.313841">
        <ele>1018.500000</ele>
        <time>2021-02-06T23:55:00.000Z</time>
      </trkpt>
      <trkpt lat="35.20885" lon="-117.313776">
        <ele>1018.000000</ele>
        <time>2021-02-06T23:55:01.000Z</time>
      </trkpt>
      <trkpt lat="35.208805" lon="-117.313709">
        <ele>1018.097656</ele>
        <time>2021-02-06T23:55:02.000Z</time>
      </trkpt>
      <trkpt lat="35.208758" lon="-117.313647">
        <ele>1018.199219</ele>
        <time>2021-02-06T23:55:03.000Z</time>
      </trkpt>
      <trkpt lat="35.208703" lon="-117.313594">
        <ele>1018.097656</ele>
        <time>2021-02-06T23:55:04.000Z</time>
      </trkpt>
      <trkpt lat="35.208649" lon="-117.313549">
        <ele>1018.097656</ele>
        <time>2021-02-06T23:55:05.000Z</time>
      </trkpt>
      <trkpt lat="35.208597" lon="-117.313513">
        <ele>1018.097656</ele>
        <time>2021-02-06T23:55:06.000Z</time>
      </trkpt>
      <trkpt lat="35.208419" lon="-117.313408">
        <ele>1018.000000</ele>
        <time>2021-02-06T23:55:10.000Z</time>
      </trkpt>
      <trkpt lat="35.208114" lon="-117.313203">
        <ele>1017.796875</ele>
        <time>2021-02-06T23:55:17.000Z</time>
      </trkpt>
      <trkpt lat="35.207973" lon="-117.313088">
        <ele>1017.398438</ele>
        <time>2021-02-06T23:55:20.000Z</time>
      </trkpt>
      <trkpt lat="35.207771" lon="-117.312894">
        <ele>1016.796875</ele>
        <time>2021-02-06T23:55:24.000Z</time>
      </trkpt>
      <trkpt lat="35.20767" lon="-117.31278">
        <ele>1016.296875</ele>
        <time>2021-02-06T23:55:26.000Z</time>
      </trkpt>
      <trkpt lat="35.207622" lon="-117.312717">
        <ele>1016.000000</ele>
        <time>2021-02-06T23:55:27.000Z</time>
      </trkpt>
      <trkpt lat="35.207577" lon="-117.31265">
        <ele>1015.796875</ele>
        <time>2021-02-06T23:55:28.000Z</time>
      </trkpt>
      <trkpt lat="35.207533" lon="-117.312578">
        <ele>1015.500000</ele>
        <time>2021-02-06T23:55:29.000Z</time>
      </trkpt>
      <trkpt lat="35.207493" lon="-117.312503">
        <ele>1015.296875</ele>
        <time>2021-02-06T23:55:30.000Z</time>
      </trkpt>
      <trkpt lat="35.207456" lon="-117.31243">
        <ele>1015.097656</ele>
        <time>2021-02-06T23:55:31.000Z</time>
      </trkpt>
      <trkpt lat="35.207426" lon="-117.31236">
        <ele>1014.898438</ele>
        <time>2021-02-06T23:55:32.000Z</time>
      </trkpt>
      <trkpt lat="35.207402" lon="-117.312291">
        <ele>1014.699219</ele>
        <time>2021-02-06T23:55:33.000Z</time>
      </trkpt>
      <trkpt lat="35.207382" lon="-117.312221">
        <ele>1014.597656</ele>
        <time>2021-02-06T23:55:34.000Z</time>
      </trkpt>
      <trkpt lat="35.207274" lon="-117.311851">
        <ele>1013.097656</ele>
        <time>2021-02-06T23:55:40.000Z</time>
      </trkpt>
      <trkpt lat="35.207254" lon="-117.311803">
        <ele>1013.000000</ele>
        <time>2021-02-06T23:55:41.000Z</time>
      </trkpt>
      <trkpt lat="35.207228" lon="-117.311753">
        <ele>1012.898438</ele>
        <time>2021-02-06T23:55:42.000Z</time>
      </trkpt>
      <trkpt lat="35.207201" lon="-117.311709">
        <ele>1012.597656</ele>
        <time>2021-02-06T23:55:44.000Z</time>
      </trkpt>
      <trkpt lat="35.207138" lon="-117.311609">
        <ele>1012.398438</ele>
        <time>2021-02-06T23:55:46.000Z</time>
      </trkpt>
      <trkpt lat="35.207118" lon="-117.311584">
        <ele>1012.398438</ele>
        <time>2021-02-06T23:55:49.000Z</time>
      </trkpt>
      <trkpt lat="35.207052" lon="-117.311537">
        <ele>1012.398438</ele>
        <time>2021-02-06T23:55:50.000Z</time>
      </trkpt>
      <trkpt lat="35.207033" lon="-117.311529">
        <ele>1011.699219</ele>
        <time>2021-02-06T23:55:53.000Z</time>
      </trkpt>
      <trkpt lat="35.206932" lon="-117.311533">
        <ele>1011.597656</ele>
        <time>2021-02-06T23:55:54.000Z</time>
      </trkpt>
      <trkpt lat="35.206794" lon="-117.311548">
        <ele>1011.597656</ele>
        <time>2021-02-06T23:55:57.000Z</time>
      </trkpt>
      <trkpt lat="35.20674" lon="-117.311543">
        <ele>1011.597656</ele>
        <time>2021-02-06T23:55:58.000Z</time>
      </trkpt>
      <trkpt lat="35.206681" lon="-117.311531">
        <ele>1011.500000</ele>
        <time>2021-02-06T23:55:59.000Z</time>
      </trkpt>
      <trkpt lat="35.206621" lon="-117.31151">
        <ele>1011.500000</ele>
        <time>2021-02-06T23:56:00.000Z</time>
      </trkpt>
      <trkpt lat="35.20635" lon="-117.311405">
        <ele>1010.597656</ele>
        <time>2021-02-06T23:56:05.000Z</time>
      </trkpt>
      <trkpt lat="35.20631" lon="-117.311397">
        <ele>1010.597656</ele>
        <time>2021-02-06T23:56:07.000Z</time>
      </trkpt>
      <trkpt lat="35.206244" lon="-117.311396">
        <ele>1010.597656</ele>
        <time>2021-02-06T23:56:09.000Z</time>
      </trkpt>
      <trkpt lat="35.206202" lon="-117.311404">
        <ele>1010.500000</ele>
        <time>2021-02-06T23:56:11.000Z</time>
      </trkpt>
      <trkpt lat="35.206155" lon="-117.31143">
        <ele>1010.796875</ele>
        <time>2021-02-06T23:56:13.000Z</time>
      </trkpt>
      <trkpt lat="35.205822" lon="-117.31164">
        <ele>1010.296875</ele>
        <time>2021-02-06T23:56:21.000Z</time>
      </trkpt>
      <trkpt lat="35.205378" lon="-117.311817">
        <ele>1009.199219</ele>
        <time>2021-02-06T23:56:32.000Z</time>
      </trkpt>
      <trkpt lat="35.205326" lon="-117.311826">
        <ele>1008.796875</ele>
        <time>2021-02-06T23:56:33.000Z</time>
      </trkpt>
      <trkpt lat="35.205273" lon="-117.311827">
        <ele>1008.398438</ele>
        <time>2021-02-06T23:56:34.000Z</time>
      </trkpt>
      <trkpt lat="35.205216" lon="-117.311819">
        <ele>1008.097656</ele>
        <time>2021-02-06T23:56:35.000Z</time>
      </trkpt>
      <trkpt lat="35.204599" lon="-117.311752">
        <ele>1007.296875</ele>
        <time>2021-02-06T23:56:47.000Z</time>
      </trkpt>
      <trkpt lat="35.204568" lon="-117.311755">
        <ele>1007.000000</ele>
        <time>2021-02-06T23:56:50.000Z</time>
      </trkpt>
      <trkpt lat="35.204458" lon="-117.311772">
        <ele>1006.597656</ele>
        <time>2021-02-06T23:56:52.000Z</time>
      </trkpt>
      <trkpt lat="35.204429" lon="-117.311781">
        <ele>1006.000000</ele>
        <time>2021-02-06T23:56:54.000Z</time>
      </trkpt>
      <trkpt lat="35.203836" lon="-117.31203">
        <ele>1004.796875</ele>
        <time>2021-02-06T23:57:07.000Z</time>
      </trkpt>
      <trkpt lat="35.203798" lon="-117.312041">
        <ele>1004.296875</ele>
        <time>2021-02-06T23:57:09.000Z</time>
      </trkpt>
      <trkpt lat="35.203719" lon="-117.31205">
        <ele>1004.097656</ele>
        <time>2021-02-06T23:57:10.000Z</time>
      </trkpt>
      <trkpt lat="35.203542" lon="-117.312053">
        <ele>1004.500000</ele>
        <time>2021-02-06T23:57:16.000Z</time>
      </trkpt>
      <trkpt lat="35.203431" lon="-117.312045">
        <ele>1003.500000</ele>
        <time>2021-02-06T23:57:19.000Z</time>
      </trkpt>
      <trkpt lat="35.203185" lon="-117.312013">
        <ele>1002.296875</ele>
        <time>2021-02-06T23:57:26.000Z</time>
      </trkpt>
      <trkpt lat="35.202958" lon="-117.311952">
        <ele>1001.699219</ele>
        <time>2021-02-06T23:57:37.000Z</time>
      </trkpt>
      <trkpt lat="35.202938" lon="-117.311944">
        <ele>1000.597656</ele>
        <time>2021-02-06T23:57:41.000Z</time>
      </trkpt>
      <trkpt lat="35.202857" lon="-117.311895">
        <ele>1000.296875</ele>
        <time>2021-02-06T23:57:42.000Z</time>
      </trkpt>
      <trkpt lat="35.202691" lon="-117.311788">
        <ele>999.597656</ele>
        <time>2021-02-06T23:57:51.000Z</time>
      </trkpt>
      <trkpt lat="35.202677" lon="-117.311783">
        <ele>999.796875</ele>
        <time>2021-02-06T23:57:56.000Z</time>
      </trkpt>
      <trkpt lat="35.202595" lon="-117.311757">
        <ele>999.796875</ele>
        <time>2021-02-06T23:57:57.000Z</time>
      </trkpt>
      <trkpt lat="35.202574" lon="-117.311757">
        <ele>999.898438</ele>
        <time>2021-02-06T23:58:00.000Z</time>
      </trkpt>
      <trkpt lat="35.202504" lon="-117.311766">
        <ele>1000.000000</ele>
        <time>2021-02-06T23:58:01.000Z</time>
      </trkpt>
      <trkpt lat="35.202478" lon="-117.311773">
        <ele>999.699219</ele>
        <time>2021-02-06T23:58:04.000Z</time>
      </trkpt>
      <trkpt lat="35.202401" lon="-117.311805">
        <ele>999.898438</ele>
        <time>2021-02-06T23:58:05.000Z</time>
      </trkpt>
      <trkpt lat="35.20238" lon="-117.311814">
        <ele>999.597656</ele>
        <time>2021-02-06T23:58:09.000Z</time>
      </trkpt>
      <trkpt lat="35.20229" lon="-117.311834">
        <ele>999.597656</ele>
        <time>2021-02-06T23:58:10.000Z</time>
      </trkpt>
      <trkpt lat="35.202263" lon="-117.311842">
        <ele>999.296875</ele>
        <time>2021-02-06T23:58:13.000Z</time>
      </trkpt>
      <trkpt lat="35.202198" lon="-117.311887">
        <ele>998.597656</ele>
        <time>2021-02-06T23:58:14.000Z</time>
      </trkpt>
      <trkpt lat="35.202184" lon="-117.311905">
        <ele>997.199219</ele>
        <time>2021-02-06T23:58:18.000Z</time>
      </trkpt>
      <trkpt lat="35.202154" lon="-117.311994">
        <ele>996.097656</ele>
        <time>2021-02-06T23:58:19.000Z</time>
      </trkpt>
      <trkpt lat="35.20215" lon="-117.312014">
        <ele>995.500000</ele>
        <time>2021-02-06T23:58:23.000Z</time>
      </trkpt>
      <trkpt lat="35.202144" lon="-117.312124">
        <ele>995.796875</ele>
        <time>2021-02-06T23:58:24.000Z</time>
      </trkpt>
      <trkpt lat="35.202138" lon="-117.312159">
        <ele>996.000000</ele>
        <time>2021-02-06T23:58:27.000Z</time>
      </trkpt>
      <trkpt lat="35.202115" lon="-117.312238">
        <ele>996.398438</ele>
        <time>2021-02-06T23:58:29.000Z</time>
      </trkpt>
      <trkpt lat="35.202095" lon="-117.312285">
        <ele>995.796875</ele>
        <time>2021-02-06T23:58:31.000Z</time>
      </trkpt>
      <trkpt lat="35.202062" lon="-117.312334">
        <ele>995.796875</ele>
        <time>2021-02-06T23:58:33.000Z</time>
      </trkpt>
      <trkpt lat="35.202026" lon="-117.312371">
        <ele>995.597656</ele>
        <time>2021-02-06T23:58:35.000Z</time>
      </trkpt>
      <trkpt lat="35.201979" lon="-117.312402">
        <ele>995.296875</ele>
        <time>2021-02-06T23:58:37.000Z</time>
      </trkpt>
      <trkpt lat="35.201739" lon="-117.312533">
        <ele>995.597656</ele>
        <time>2021-02-06T23:58:47.000Z</time>
      </trkpt>
      <trkpt lat="35.201717" lon="-117.312543">
        <ele>995.199219</ele>
        <time>2021-02-06T23:58:50.000Z</time>
      </trkpt>
      <trkpt lat="35.201633" lon="-117.312576">
        <ele>995.097656</ele>
        <time>2021-02-06T23:58:51.000Z</time>
      </trkpt>
      <trkpt lat="35.201599" lon="-117.312585">
        <ele>995.097656</ele>
        <time>2021-02-06T23:58:53.000Z</time>
      </trkpt>
      <trkpt lat="35.201283" lon="-117.31266">
        <ele>993.796875</ele>
        <time>2021-02-06T23:59:04.000Z</time>
      </trkpt>
      <trkpt lat="35.201259" lon="-117.312661">
        <ele>993.500000</ele>
        <time>2021-02-06T23:59:07.000Z</time>
      </trkpt>
      <trkpt lat="35.200673" lon="-117.312659">
        <ele>991.199219</ele>
        <time>2021-02-06T23:59:27.000Z</time>
      </trkpt>
      <trkpt lat="35.200648" lon="-117.312656">
        <ele>990.796875</ele>
        <time>2021-02-06T23:59:30.000Z</time>
      </trkpt>
      <trkpt lat="35.200443" lon="-117.312614">
        <ele>990.398438</ele>
        <time>2021-02-06T23:59:37.000Z</time>
      </trkpt>
      <trkpt lat="35.200419" lon="-117.312616">
        <ele>989.898438</ele>
        <time>2021-02-06T23:59:41.000Z</time>
      </trkpt>
      <trkpt lat="35.200353" lon="-117.312635">
        <ele>989.199219</ele>
        <time>2021-02-06T23:59:43.000Z</time>
      </trkpt>
      <trkpt lat="35.200317" lon="-117.312653">
        <ele>988.296875</ele>
        <time>2021-02-06T23:59:46.000Z</time>
      </trkpt>
      <trkpt lat="35.200255" lon="-117.312696">
        <ele>988.097656</ele>
        <time>2021-02-06T23:59:47.000Z</time>
      </trkpt>
      <trkpt lat="35.200232" lon="-117.312716">
        <ele>987.597656</ele>
        <time>2021-02-06T23:59:49.000Z</time>
      </trkpt>
      <trkpt lat="35.200156" lon="-117.312786">
        <ele>987.000000</ele>
        <time>2021-02-06T23:59:51.000Z</time>
      </trkpt>
      <trkpt lat="35.200137" lon="-117.312816">
        <ele>986.796875</ele>
        <time>2021-02-06T23:59:54.000Z</time>
      </trkpt>
      <trkpt lat="35.200116" lon="-117.312913">
        <ele>986.796875</ele>
        <time>2021-02-06T23:59:55.000Z</time>
      </trkpt>
      <trkpt lat="35.200117" lon="-117.312937">
        <ele>987.000000</ele>
        <time>2021-02-06T23:59:59.000Z</time>
      </trkpt>
      <trkpt lat="35.200133" lon="-117.313076">
        <ele>987.000000</ele>
        <time>2021-02-07T00:00:02.000Z</time>
      </trkpt>
      <trkpt lat="35.200138" lon="-117.313105">
        <ele>986.597656</ele>
        <time>2021-02-07T00:00:05.000Z</time>
      </trkpt>
      <trkpt lat="35.200168" lon="-117.31319">
        <ele>986.398438</ele>
        <time>2021-02-07T00:00:06.000Z</time>
      </trkpt>
      <trkpt lat="35.200205" lon="-117.313318">
        <ele>986.398438</ele>
        <time>2021-02-07T00:00:12.000Z</time>
      </trkpt>
      <trkpt lat="35.200205" lon="-117.313345">
        <ele>986.398438</ele>
        <time>2021-02-07T00:00:16.000Z</time>
      </trkpt>
      <trkpt lat="35.20017" lon="-117.313444">
        <ele>986.500000</ele>
        <time>2021-02-07T00:00:17.000Z</time>
      </trkpt>
      <trkpt lat="35.200151" lon="-117.313455">
        <ele>986.898438</ele>
        <time>2021-02-07T00:00:21.000Z</time>
      </trkpt>
      <trkpt lat="35.200064" lon="-117.313462">
        <ele>986.699219</ele>
        <time>2021-02-07T00:00:22.000Z</time>
      </trkpt>
      <trkpt lat="35.200041" lon="-117.313448">
        <ele>985.097656</ele>
        <time>2021-02-07T00:00:25.000Z</time>
      </trkpt>
      <trkpt lat="35.199964" lon="-117.313376">
        <ele>984.699219</ele>
        <time>2021-02-07T00:00:26.000Z</time>
      </trkpt>
      <trkpt lat="35.199792" lon="-117.313197">
        <ele>983.398438</ele>
        <time>2021-02-07T00:00:31.000Z</time>
      </trkpt>
      <trkpt lat="35.19975" lon="-117.313171">
        <ele>983.296875</ele>
        <time>2021-02-07T00:00:32.000Z</time>
      </trkpt>
      <trkpt lat="35.199707" lon="-117.313156">
        <ele>983.199219</ele>
        <time>2021-02-07T00:00:34.000Z</time>
      </trkpt>
      <trkpt lat="35.199639" lon="-117.313149">
        <ele>983.000000</ele>
        <time>2021-02-07T00:00:35.000Z</time>
      </trkpt>
      <trkpt lat="35.199608" lon="-117.313154">
        <ele>982.796875</ele>
        <time>2021-02-07T00:00:37.000Z</time>
      </trkpt>
      <trkpt lat="35.199123" lon="-117.313228">
        <ele>982.597656</ele>
        <time>2021-02-07T00:00:49.000Z</time>
      </trkpt>
      <trkpt lat="35.199094" lon="-117.313225">
        <ele>982.398438</ele>
        <time>2021-02-07T00:00:51.000Z</time>
      </trkpt>
      <trkpt lat="35.19903" lon="-117.313211">
        <ele>982.296875</ele>
        <time>2021-02-07T00:00:52.000Z</time>
      </trkpt>
      <trkpt lat="35.198868" lon="-117.313177">
        <ele>981.199219</ele>
        <time>2021-02-07T00:00:56.000Z</time>
      </trkpt>
      <trkpt lat="35.198823" lon="-117.313173">
        <ele>980.796875</ele>
        <time>2021-02-07T00:00:58.000Z</time>
      </trkpt>
      <trkpt lat="35.198738" lon="-117.313152">
        <ele>980.699219</ele>
        <time>2021-02-07T00:00:59.000Z</time>
      </trkpt>
      <trkpt lat="35.198702" lon="-117.313136">
        <ele>980.500000</ele>
        <time>2021-02-07T00:01:01.000Z</time>
      </trkpt>
      <trkpt lat="35.198644" lon="-117.313123">
        <ele>980.097656</ele>
        <time>2021-02-07T00:01:03.000Z</time>
      </trkpt>
      <trkpt lat="35.198599" lon="-117.313126">
        <ele>979.898438</ele>
        <time>2021-02-07T00:01:05.000Z</time>
      </trkpt>
      <trkpt lat="35.198545" lon="-117.313129">
        <ele>979.398438</ele>
        <time>2021-02-07T00:01:07.000Z</time>
      </trkpt>
      <trkpt lat="35.198479" lon="-117.313118">
        <ele>979.296875</ele>
        <time>2021-02-07T00:01:08.000Z</time>
      </trkpt>
      <trkpt lat="35.198449" lon="-117.31311">
        <ele>978.796875</ele>
        <time>2021-02-07T00:01:11.000Z</time>
      </trkpt>
      <trkpt lat="35.198375" lon="-117.313056">
        <ele>978.500000</ele>
        <time>2021-02-07T00:01:12.000Z</time>
      </trkpt>
      <trkpt lat="35.198356" lon="-117.313031">
        <ele>977.796875</ele>
        <time>2021-02-07T00:01:15.000Z</time>
      </trkpt>
      <trkpt lat="35.198315" lon="-117.312932">
        <ele>977.398438</ele>
        <time>2021-02-07T00:01:16.000Z</time>
      </trkpt>
      <trkpt lat="35.198245" lon="-117.312753">
        <ele>976.500000</ele>
        <time>2021-02-07T00:01:20.000Z</time>
      </trkpt>
      <trkpt lat="35.198175" lon="-117.312536">
        <ele>975.500000</ele>
        <time>2021-02-07T00:01:26.000Z</time>
      </trkpt>
      <trkpt lat="35.19816" lon="-117.312508">
        <ele>975.597656</ele>
        <time>2021-02-07T00:01:29.000Z</time>
      </trkpt>
      <trkpt lat="35.198087" lon="-117.312469">
        <ele>975.398438</ele>
        <time>2021-02-07T00:01:30.000Z</time>
      </trkpt>
      <trkpt lat="35.198059" lon="-117.312472">
        <ele>974.199219</ele>
        <time>2021-02-07T00:01:33.000Z</time>
      </trkpt>
      <trkpt lat="35.197982" lon="-117.312516">
        <ele>974.199219</ele>
        <time>2021-02-07T00:01:34.000Z</time>
      </trkpt>
      <trkpt lat="35.19796" lon="-117.312533">
        <ele>974.597656</ele>
        <time>2021-02-07T00:01:37.000Z</time>
      </trkpt>
      <trkpt lat="35.197887" lon="-117.312578">
        <ele>974.699219</ele>
        <time>2021-02-07T00:01:38.000Z</time>
      </trkpt>
      <trkpt lat="35.197862" lon="-117.312587">
        <ele>975.398438</ele>
        <time>2021-02-07T00:01:42.000Z</time>
      </trkpt>
      <trkpt lat="35.197782" lon="-117.312605">
        <ele>975.398438</ele>
        <time>2021-02-07T00:01:43.000Z</time>
      </trkpt>
      <trkpt lat="35.197761" lon="-117.312607">
        <ele>974.500000</ele>
        <time>2021-02-07T00:01:47.000Z</time>
      </trkpt>
      <trkpt lat="35.197678" lon="-117.312607">
        <ele>974.296875</ele>
        <time>2021-02-07T00:01:48.000Z</time>
      </trkpt>
      <trkpt lat="35.197658" lon="-117.312605">
        <ele>973.699219</ele>
        <time>2021-02-07T00:01:53.000Z</time>
      </trkpt>
      <trkpt lat="35.197581" lon="-117.312579">
        <ele>973.597656</ele>
        <time>2021-02-07T00:01:54.000Z</time>
      </trkpt>
      <trkpt lat="35.197561" lon="-117.312568">
        <ele>973.199219</ele>
        <time>2021-02-07T00:01:57.000Z</time>
      </trkpt>
      <trkpt lat="35.19748" lon="-117.31249">
        <ele>973.097656</ele>
        <time>2021-02-07T00:01:58.000Z</time>
      </trkpt>
      <trkpt lat="35.197454" lon="-117.312447">
        <ele>972.500000</ele>
        <time>2021-02-07T00:02:00.000Z</time>
      </trkpt>
      <trkpt lat="35.197401" lon="-117.312363">
        <ele>972.296875</ele>
        <time>2021-02-07T00:02:01.000Z</time>
      </trkpt>
      <trkpt lat="35.197373" lon="-117.312333">
        <ele>971.500000</ele>
        <time>2021-02-07T00:02:03.000Z</time>
      </trkpt>
      <trkpt lat="35.197327" lon="-117.3123">
        <ele>971.097656</ele>
        <time>2021-02-07T00:02:06.000Z</time>
      </trkpt>
      <trkpt lat="35.197287" lon="-117.31228">
        <ele>970.699219</ele>
        <time>2021-02-07T00:02:10.000Z</time>
      </trkpt>
      <trkpt lat="35.19724" lon="-117.31226">
        <ele>970.296875</ele>
        <time>2021-02-07T00:02:12.000Z</time>
      </trkpt>
      <trkpt lat="35.197198" lon="-117.312249">
        <ele>969.796875</ele>
        <time>2021-02-07T00:02:14.000Z</time>
      </trkpt>
      <trkpt lat="35.197132" lon="-117.312253">
        <ele>969.796875</ele>
        <time>2021-02-07T00:02:15.000Z</time>
      </trkpt>
      <trkpt lat="35.197098" lon="-117.312259">
        <ele>969.199219</ele>
        <time>2021-02-07T00:02:17.000Z</time>
      </trkpt>
      <trkpt lat="35.197029" lon="-117.312281">
        <ele>969.199219</ele>
        <time>2021-02-07T00:02:18.000Z</time>
      </trkpt>
      <trkpt lat="35.196994" lon="-117.312296">
        <ele>969.199219</ele>
        <time>2021-02-07T00:02:20.000Z</time>
      </trkpt>
      <trkpt lat="35.196916" lon="-117.312337">
        <ele>969.097656</ele>
        <time>2021-02-07T00:02:21.000Z</time>
      </trkpt>
      <trkpt lat="35.196877" lon="-117.312364">
        <ele>968.398438</ele>
        <time>2021-02-07T00:02:23.000Z</time>
      </trkpt>
      <trkpt lat="35.196811" lon="-117.312435">
        <ele>967.796875</ele>
        <time>2021-02-07T00:02:24.000Z</time>
      </trkpt>
      <trkpt lat="35.196783" lon="-117.312479">
        <ele>967.699219</ele>
        <time>2021-02-07T00:02:25.000Z</time>
      </trkpt>
      <trkpt lat="35.196758" lon="-117.312526">
        <ele>967.500000</ele>
        <time>2021-02-07T00:02:26.000Z</time>
      </trkpt>
      <trkpt lat="35.196736" lon="-117.312573">
        <ele>967.296875</ele>
        <time>2021-02-07T00:02:28.000Z</time>
      </trkpt>
      <trkpt lat="35.196673" lon="-117.312714">
        <ele>966.898438</ele>
        <time>2021-02-07T00:02:32.000Z</time>
      </trkpt>
      <trkpt lat="35.196665" lon="-117.312724">
        <ele>967.097656</ele>
        <time>2021-02-07T00:02:39.000Z</time>
      </trkpt>
      <trkpt lat="35.196581" lon="-117.312756">
        <ele>967.398438</ele>
        <time>2021-02-07T00:02:40.000Z</time>
      </trkpt>
      <trkpt lat="35.196565" lon="-117.312755">
        <ele>967.796875</ele>
        <time>2021-02-07T00:02:44.000Z</time>
      </trkpt>
      <trkpt lat="35.196266" lon="-117.312685">
        <ele>965.296875</ele>
        <time>2021-02-07T00:03:01.000Z</time>
      </trkpt>
      <trkpt lat="35.196255" lon="-117.312688">
        <ele>964.000000</ele>
        <time>2021-02-07T00:03:09.000Z</time>
      </trkpt>
      <trkpt lat="35.196182" lon="-117.312748">
        <ele>962.898438</ele>
        <time>2021-02-07T00:03:10.000Z</time>
      </trkpt>
      <trkpt lat="35.196171" lon="-117.312756">
        <ele>964.500000</ele>
        <time>2021-02-07T00:03:18.000Z</time>
      </trkpt>
      <trkpt lat="35.196107" lon="-117.312818">
        <ele>964.699219</ele>
        <time>2021-02-07T00:03:19.000Z</time>
      </trkpt>
      <trkpt lat="35.196101" lon="-117.312827">
        <ele>964.199219</ele>
        <time>2021-02-07T00:03:24.000Z</time>
      </trkpt>
      <trkpt lat="35.196065" lon="-117.312934">
        <ele>964.296875</ele>
        <time>2021-02-07T00:03:25.000Z</time>
      </trkpt>
      <trkpt lat="35.196059" lon="-117.312965">
        <ele>963.398438</ele>
        <time>2021-02-07T00:03:28.000Z</time>
      </trkpt>
      <trkpt lat="35.196046" lon="-117.313043">
        <ele>963.199219</ele>
        <time>2021-02-07T00:03:30.000Z</time>
      </trkpt>
      <trkpt lat="35.196037" lon="-117.313172">
        <ele>962.296875</ele>
        <time>2021-02-07T00:03:34.000Z</time>
      </trkpt>
      <trkpt lat="35.196029" lon="-117.313201">
        <ele>962.296875</ele>
        <time>2021-02-07T00:03:37.000Z</time>
      </trkpt>
      <trkpt lat="35.19598" lon="-117.313274">
        <ele>962.398438</ele>
        <time>2021-02-07T00:03:38.000Z</time>
      </trkpt>
      <trkpt lat="35.195963" lon="-117.313292">
        <ele>962.398438</ele>
        <time>2021-02-07T00:03:41.000Z</time>
      </trkpt>
      <trkpt lat="35.195849" lon="-117.313405">
        <ele>962.500000</ele>
        <time>2021-02-07T00:03:44.000Z</time>
      </trkpt>
      <trkpt lat="35.195824" lon="-117.31342">
        <ele>962.597656</ele>
        <time>2021-02-07T00:03:48.000Z</time>
      </trkpt>
      <trkpt lat="35.195751" lon="-117.313454">
        <ele>962.500000</ele>
        <time>2021-02-07T00:03:49.000Z</time>
      </trkpt>
      <trkpt lat="35.19573" lon="-117.313462">
        <ele>962.097656</ele>
        <time>2021-02-07T00:03:52.000Z</time>
      </trkpt>
      <trkpt lat="35.195656" lon="-117.31348">
        <ele>962.000000</ele>
        <time>2021-02-07T00:03:53.000Z</time>
      </trkpt>
      <trkpt lat="35.195538" lon="-117.313513">
        <ele>962.000000</ele>
        <time>2021-02-07T00:03:58.000Z</time>
      </trkpt>
      <trkpt lat="35.195369" lon="-117.313593">
        <ele>960.597656</ele>
        <time>2021-02-07T00:04:22.000Z</time>
      </trkpt>
      <trkpt lat="35.195369" lon="-117.313594">
        <ele>961.296875</ele>
        <time>2021-02-07T00:04:46.000Z</time>
      </trkpt>
      <trkpt lat="35.19528" lon="-117.313633">
        <ele>960.796875</ele>
        <time>2021-02-07T00:04:47.000Z</time>
      </trkpt>
      <trkpt lat="35.195248" lon="-117.31364">
        <ele>960.500000</ele>
        <time>2021-02-07T00:04:49.000Z</time>
      </trkpt>
      <trkpt lat="35.194929" lon="-117.313693">
        <ele>959.199219</ele>
        <time>2021-02-07T00:04:58.000Z</time>
      </trkpt>
      <trkpt lat="35.194902" lon="-117.313704">
        <ele>959.898438</ele>
        <time>2021-02-07T00:05:02.000Z</time>
      </trkpt>
      <trkpt lat="35.194835" lon="-117.313745">
        <ele>959.898438</ele>
        <time>2021-02-07T00:05:04.000Z</time>
      </trkpt>
      <trkpt lat="35.194741" lon="-117.313804">
        <ele>958.398438</ele>
        <time>2021-02-07T00:05:09.000Z</time>
      </trkpt>
      <trkpt lat="35.194727" lon="-117.313816">
        <ele>957.796875</ele>
        <time>2021-02-07T00:05:15.000Z</time>
      </trkpt>
      <trkpt lat="35.194287" lon="-117.314222">
        <ele>956.296875</ele>
        <time>2021-02-07T00:05:39.000Z</time>
      </trkpt>
      <trkpt lat="35.194034" lon="-117.314496">
        <ele>955.699219</ele>
        <time>2021-02-07T00:06:00.000Z</time>
      </trkpt>
      <trkpt lat="35.194019" lon="-117.314509">
        <ele>955.597656</ele>
        <time>2021-02-07T00:06:04.000Z</time>
      </trkpt>
      <trkpt lat="35.193941" lon="-117.314557">
        <ele>955.597656</ele>
        <time>2021-02-07T00:06:05.000Z</time>
      </trkpt>
      <trkpt lat="35.193747" lon="-117.31466">
        <ele>954.597656</ele>
        <time>2021-02-07T00:06:12.000Z</time>
      </trkpt>
      <trkpt lat="35.193718" lon="-117.314672">
        <ele>954.398438</ele>
        <time>2021-02-07T00:06:14.000Z</time>
      </trkpt>
      <trkpt lat="35.193623" lon="-117.314702">
        <ele>954.296875</ele>
        <time>2021-02-07T00:06:16.000Z</time>
      </trkpt>
      <trkpt lat="35.19359" lon="-117.314708">
        <ele>954.000000</ele>
        <time>2021-02-07T00:06:18.000Z</time>
      </trkpt>
      <trkpt lat="35.193527" lon="-117.314711">
        <ele>954.000000</ele>
        <time>2021-02-07T00:06:19.000Z</time>
      </trkpt>
      <trkpt lat="35.193294" lon="-117.31472">
        <ele>953.500000</ele>
        <time>2021-02-07T00:06:27.000Z</time>
      </trkpt>
      <trkpt lat="35.19267" lon="-117.314799">
        <ele>951.500000</ele>
        <time>2021-02-07T00:06:42.000Z</time>
      </trkpt>
      <trkpt lat="35.192632" lon="-117.314811">
        <ele>951.296875</ele>
        <time>2021-02-07T00:06:44.000Z</time>
      </trkpt>
      <trkpt lat="35.192551" lon="-117.314845">
        <ele>950.699219</ele>
        <time>2021-02-07T00:06:45.000Z</time>
      </trkpt>
      <trkpt lat="35.191962" lon="-117.315102">
        <ele>948.398438</ele>
        <time>2021-02-07T00:06:57.000Z</time>
      </trkpt>
      <trkpt lat="35.19188" lon="-117.315159">
        <ele>948.097656</ele>
        <time>2021-02-07T00:06:59.000Z</time>
      </trkpt>
      <trkpt lat="35.191602" lon="-117.315371">
        <ele>947.699219</ele>
        <time>2021-02-07T00:07:10.000Z</time>
      </trkpt>
      <trkpt lat="35.191474" lon="-117.315441">
        <ele>947.500000</ele>
        <time>2021-02-07T00:07:14.000Z</time>
      </trkpt>
      <trkpt lat="35.191216" lon="-117.315589">
        <ele>946.199219</ele>
        <time>2021-02-07T00:07:23.000Z</time>
      </trkpt>
      <trkpt lat="35.191178" lon="-117.315606">
        <ele>945.898438</ele>
        <time>2021-02-07T00:07:25.000Z</time>
      </trkpt>
      <trkpt lat="35.1911" lon="-117.315635">
        <ele>945.597656</ele>
        <time>2021-02-07T00:07:26.000Z</time>
      </trkpt>
      <trkpt lat="35.191059" lon="-117.315649">
        <ele>945.199219</ele>
        <time>2021-02-07T00:07:28.000Z</time>
      </trkpt>
      <trkpt lat="35.190978" lon="-117.315667">
        <ele>945.097656</ele>
        <time>2021-02-07T00:07:29.000Z</time>
      </trkpt>
      <trkpt lat="35.190942" lon="-117.315672">
        <ele>945.000000</ele>
        <time>2021-02-07T00:07:31.000Z</time>
      </trkpt>
      <trkpt lat="35.190459" lon="-117.315718">
        <ele>944.796875</ele>
        <time>2021-02-07T00:07:48.000Z</time>
      </trkpt>
      <trkpt lat="35.190433" lon="-117.315725">
        <ele>944.296875</ele>
        <time>2021-02-07T00:07:51.000Z</time>
      </trkpt>
      <trkpt lat="35.190343" lon="-117.315764">
        <ele>944.199219</ele>
        <time>2021-02-07T00:07:53.000Z</time>
      </trkpt>
      <trkpt lat="35.19032" lon="-117.315768">
        <ele>943.699219</ele>
        <time>2021-02-07T00:07:56.000Z</time>
      </trkpt>
      <trkpt lat="35.190144" lon="-117.315816">
        <ele>942.296875</ele>
        <time>2021-02-07T00:08:02.000Z</time>
      </trkpt>
      <trkpt lat="35.190125" lon="-117.315822">
        <ele>941.597656</ele>
        <time>2021-02-07T00:08:06.000Z</time>
      </trkpt>
      <trkpt lat="35.190045" lon="-117.315852">
        <ele>940.597656</ele>
        <time>2021-02-07T00:08:07.000Z</time>
      </trkpt>
      <trkpt lat="35.190023" lon="-117.315862">
        <ele>939.898438</ele>
        <time>2021-02-07T00:08:10.000Z</time>
      </trkpt>
      <trkpt lat="35.189961" lon="-117.315894">
        <ele>939.597656</ele>
        <time>2021-02-07T00:08:12.000Z</time>
      </trkpt>
      <trkpt lat="35.189838" lon="-117.315957">
        <ele>939.000000</ele>
        <time>2021-02-07T00:08:17.000Z</time>
      </trkpt>
      <trkpt lat="35.18981" lon="-117.315965">
        <ele>938.699219</ele>
        <time>2021-02-07T00:08:19.000Z</time>
      </trkpt>
      <trkpt lat="35.189743" lon="-117.315974">
        <ele>938.597656</ele>
        <time>2021-02-07T00:08:20.000Z</time>
      </trkpt>
      <trkpt lat="35.189642" lon="-117.315987">
        <ele>938.199219</ele>
        <time>2021-02-07T00:08:23.000Z</time>
      </trkpt>
      <trkpt lat="35.18961" lon="-117.315997">
        <ele>937.796875</ele>
        <time>2021-02-07T00:08:25.000Z</time>
      </trkpt>
      <trkpt lat="35.189552" lon="-117.31603">
        <ele>937.500000</ele>
        <time>2021-02-07T00:08:27.000Z</time>
      </trkpt>
      <trkpt lat="35.189526" lon="-117.316051">
        <ele>935.597656</ele>
        <time>2021-02-07T00:08:37.000Z</time>
      </trkpt>
      <trkpt lat="35.189016" lon="-117.316477">
        <ele>933.796875</ele>
        <time>2021-02-07T00:08:48.000Z</time>
      </trkpt>
      <trkpt lat="35.188706" lon="-117.316734">
        <ele>932.796875</ele>
        <time>2021-02-07T00:08:53.000Z</time>
      </trkpt>
      <trkpt lat="35.188646" lon="-117.316793">
        <ele>932.398438</ele>
        <time>2021-02-07T00:08:54.000Z</time>
      </trkpt>
      <trkpt lat="35.188592" lon="-117.316856">
        <ele>932.097656</ele>
        <time>2021-02-07T00:08:55.000Z</time>
      </trkpt>
      <trkpt lat="35.188541" lon="-117.316923">
        <ele>931.796875</ele>
        <time>2021-02-07T00:08:56.000Z</time>
      </trkpt>
      <trkpt lat="35.188493" lon="-117.316993">
        <ele>931.597656</ele>
        <time>2021-02-07T00:08:57.000Z</time>
      </trkpt>
      <trkpt lat="35.18845" lon="-117.317069">
        <ele>931.296875</ele>
        <time>2021-02-07T00:08:58.000Z</time>
      </trkpt>
      <trkpt lat="35.18841" lon="-117.317148">
        <ele>931.097656</ele>
        <time>2021-02-07T00:08:59.000Z</time>
      </trkpt>
      <trkpt lat="35.18817" lon="-117.317623">
        <ele>929.796875</ele>
        <time>2021-02-07T00:09:05.000Z</time>
      </trkpt>
      <trkpt lat="35.188067" lon="-117.317768">
        <ele>929.296875</ele>
        <time>2021-02-07T00:09:07.000Z</time>
      </trkpt>
      <trkpt lat="35.187636" lon="-117.318379">
        <ele>927.000000</ele>
        <time>2021-02-07T00:09:15.000Z</time>
      </trkpt>
      <trkpt lat="35.187416" lon="-117.31866">
        <ele>925.898438</ele>
        <time>2021-02-07T00:09:19.000Z</time>
      </trkpt>
      <trkpt lat="35.186959" lon="-117.319177">
        <ele>924.000000</ele>
        <time>2021-02-07T00:09:27.000Z</time>
      </trkpt>
      <trkpt lat="35.1869" lon="-117.319233">
        <ele>923.796875</ele>
        <time>2021-02-07T00:09:28.000Z</time>
      </trkpt>
      <trkpt lat="35.186776" lon="-117.319338">
        <ele>923.500000</ele>
        <time>2021-02-07T00:09:30.000Z</time>
      </trkpt>
      <trkpt lat="35.186644" lon="-117.319432">
        <ele>923.000000</ele>
        <time>2021-02-07T00:09:32.000Z</time>
      </trkpt>
      <trkpt lat="35.186574" lon="-117.31947">
        <ele>922.699219</ele>
        <time>2021-02-07T00:09:33.000Z</time>
      </trkpt>
      <trkpt lat="35.186502" lon="-117.319499">
        <ele>922.500000</ele>
        <time>2021-02-07T00:09:34.000Z</time>
      </trkpt>
      <trkpt lat="35.186429" lon="-117.319519">
        <ele>922.199219</ele>
        <time>2021-02-07T00:09:35.000Z</time>
      </trkpt>
      <trkpt lat="35.186354" lon="-117.319532">
        <ele>922.000000</ele>
        <time>2021-02-07T00:09:36.000Z</time>
      </trkpt>
      <trkpt lat="35.186141" lon="-117.319575">
        <ele>921.199219</ele>
        <time>2021-02-07T00:09:39.000Z</time>
      </trkpt>
      <trkpt lat="35.185539" lon="-117.319738">
        <ele>919.097656</ele>
        <time>2021-02-07T00:09:48.000Z</time>
      </trkpt>
      <trkpt lat="35.184884" lon="-117.3198">
        <ele>918.296875</ele>
        <time>2021-02-07T00:09:57.000Z</time>
      </trkpt>
      <trkpt lat="35.184661" lon="-117.319836">
        <ele>918.000000</ele>
        <time>2021-02-07T00:10:00.000Z</time>
      </trkpt>
      <trkpt lat="35.184513" lon="-117.319873">
        <ele>917.398438</ele>
        <time>2021-02-07T00:10:02.000Z</time>
      </trkpt>
      <trkpt lat="35.184441" lon="-117.319899">
        <ele>917.000000</ele>
        <time>2021-02-07T00:10:03.000Z</time>
      </trkpt>
      <trkpt lat="35.18422" lon="-117.319999">
        <ele>915.898438</ele>
        <time>2021-02-07T00:10:06.000Z</time>
      </trkpt>
      <trkpt lat="35.183851" lon="-117.320205">
        <ele>914.199219</ele>
        <time>2021-02-07T00:10:11.000Z</time>
      </trkpt>
      <trkpt lat="35.183291" lon="-117.32059">
        <ele>910.898438</ele>
        <time>2021-02-07T00:10:19.000Z</time>
      </trkpt>
      <trkpt lat="35.18302" lon="-117.320801">
        <ele>910.097656</ele>
        <time>2021-02-07T00:10:23.000Z</time>
      </trkpt>
      <trkpt lat="35.18263" lon="-117.321103">
        <ele>908.796875</ele>
        <time>2021-02-07T00:10:29.000Z</time>
      </trkpt>
      <trkpt lat="35.182427" lon="-117.321226">
        <ele>908.000000</ele>
        <time>2021-02-07T00:10:32.000Z</time>
      </trkpt>
      <trkpt lat="35.182288" lon="-117.321296">
        <ele>907.398438</ele>
        <time>2021-02-07T00:10:34.000Z</time>
      </trkpt>
      <trkpt lat="35.182143" lon="-117.321352">
        <ele>906.699219</ele>
        <time>2021-02-07T00:10:36.000Z</time>
      </trkpt>
      <trkpt lat="35.181995" lon="-117.321394">
        <ele>906.296875</ele>
        <time>2021-02-07T00:10:38.000Z</time>
      </trkpt>
      <trkpt lat="35.181919" lon="-117.32141">
        <ele>906.000000</ele>
        <time>2021-02-07T00:10:39.000Z</time>
      </trkpt>
      <trkpt lat="35.181843" lon="-117.321421">
        <ele>905.898438</ele>
        <time>2021-02-07T00:10:40.000Z</time>
      </trkpt>
      <trkpt lat="35.181767" lon="-117.321427">
        <ele>905.500000</ele>
        <time>2021-02-07T00:10:41.000Z</time>
      </trkpt>
      <trkpt lat="35.181691" lon="-117.321426">
        <ele>905.296875</ele>
        <time>2021-02-07T00:10:42.000Z</time>
      </trkpt>
      <trkpt lat="35.181616" lon="-117.321418">
        <ele>905.097656</ele>
        <time>2021-02-07T00:10:43.000Z</time>
      </trkpt>
      <trkpt lat="35.181467" lon="-117.321392">
        <ele>904.500000</ele>
        <time>2021-02-07T00:10:45.000Z</time>
      </trkpt>
      <trkpt lat="35.180878" lon="-117.321217">
        <ele>903.296875</ele>
        <time>2021-02-07T00:10:53.000Z</time>
      </trkpt>
      <trkpt lat="35.18036" lon="-117.321032">
        <ele>901.796875</ele>
        <time>2021-02-07T00:11:00.000Z</time>
      </trkpt>
      <trkpt lat="35.180286" lon="-117.320996">
        <ele>901.699219</ele>
        <time>2021-02-07T00:11:01.000Z</time>
      </trkpt>
      <trkpt lat="35.180144" lon="-117.32091">
        <ele>900.898438</ele>
        <time>2021-02-07T00:11:03.000Z</time>
      </trkpt>
      <trkpt lat="35.179883" lon="-117.320719">
        <ele>900.000000</ele>
        <time>2021-02-07T00:11:07.000Z</time>
      </trkpt>
      <trkpt lat="35.179816" lon="-117.320683">
        <ele>899.500000</ele>
        <time>2021-02-07T00:11:08.000Z</time>
      </trkpt>
      <trkpt lat="35.179748" lon="-117.320654">
        <ele>899.199219</ele>
        <time>2021-02-07T00:11:09.000Z</time>
      </trkpt>
      <trkpt lat="35.179678" lon="-117.320633">
        <ele>898.898438</ele>
        <time>2021-02-07T00:11:10.000Z</time>
      </trkpt>
      <trkpt lat="35.179609" lon="-117.320619">
        <ele>898.699219</ele>
        <time>2021-02-07T00:11:11.000Z</time>
      </trkpt>
      <trkpt lat="35.179538" lon="-117.320614">
        <ele>898.398438</ele>
        <time>2021-02-07T00:11:12.000Z</time>
      </trkpt>
      <trkpt lat="35.179469" lon="-117.320618">
        <ele>898.000000</ele>
        <time>2021-02-07T00:11:13.000Z</time>
      </trkpt>
      <trkpt lat="35.179329" lon="-117.320636">
        <ele>897.398438</ele>
        <time>2021-02-07T00:11:15.000Z</time>
      </trkpt>
      <trkpt lat="35.17926" lon="-117.320651">
        <ele>896.500000</ele>
        <time>2021-02-07T00:11:16.000Z</time>
      </trkpt>
      <trkpt lat="35.179192" lon="-117.320671">
        <ele>896.296875</ele>
        <time>2021-02-07T00:11:17.000Z</time>
      </trkpt>
      <trkpt lat="35.17899" lon="-117.320749">
        <ele>895.296875</ele>
        <time>2021-02-07T00:11:20.000Z</time>
      </trkpt>
      <trkpt lat="35.178387" lon="-117.321043">
        <ele>893.097656</ele>
        <time>2021-02-07T00:11:29.000Z</time>
      </trkpt>
      <trkpt lat="35.17819" lon="-117.321163">
        <ele>892.296875</ele>
        <time>2021-02-07T00:11:32.000Z</time>
      </trkpt>
      <trkpt lat="35.177652" lon="-117.321524">
        <ele>890.000000</ele>
        <time>2021-02-07T00:11:40.000Z</time>
      </trkpt>
      <trkpt lat="35.177066" lon="-117.321855">
        <ele>888.296875</ele>
        <time>2021-02-07T00:11:48.000Z</time>
      </trkpt>
      <trkpt lat="35.176453" lon="-117.322191">
        <ele>886.000000</ele>
        <time>2021-02-07T00:11:56.000Z</time>
      </trkpt>
      <trkpt lat="35.176313" lon="-117.32226">
        <ele>885.597656</ele>
        <time>2021-02-07T00:11:58.000Z</time>
      </trkpt>
      <trkpt lat="35.176187" lon="-117.322308">
        <ele>884.898438</ele>
        <time>2021-02-07T00:12:00.000Z</time>
      </trkpt>
      <trkpt lat="35.176049" lon="-117.322346">
        <ele>884.796875</ele>
        <time>2021-02-07T00:12:02.000Z</time>
      </trkpt>
      <trkpt lat="35.175395" lon="-117.322479">
        <ele>882.199219</ele>
        <time>2021-02-07T00:12:10.000Z</time>
      </trkpt>
      <trkpt lat="35.175222" lon="-117.322493">
        <ele>881.500000</ele>
        <time>2021-02-07T00:12:12.000Z</time>
      </trkpt>
      <trkpt lat="35.174854" lon="-117.322506">
        <ele>880.199219</ele>
        <time>2021-02-07T00:12:17.000Z</time>
      </trkpt>
      <trkpt lat="35.174784" lon="-117.322524">
        <ele>879.898438</ele>
        <time>2021-02-07T00:12:18.000Z</time>
      </trkpt>
      <trkpt lat="35.174646" lon="-117.322575">
        <ele>879.398438</ele>
        <time>2021-02-07T00:12:20.000Z</time>
      </trkpt>
      <trkpt lat="35.174372" lon="-117.322708">
        <ele>878.597656</ele>
        <time>2021-02-07T00:12:24.000Z</time>
      </trkpt>
      <trkpt lat="35.173802" lon="-117.323039">
        <ele>876.398438</ele>
        <time>2021-02-07T00:12:32.000Z</time>
      </trkpt>
      <trkpt lat="35.173366" lon="-117.323267">
        <ele>874.699219</ele>
        <time>2021-02-07T00:12:40.000Z</time>
      </trkpt>
      <trkpt lat="35.173117" lon="-117.323354">
        <ele>873.398438</ele>
        <time>2021-02-07T00:12:44.000Z</time>
      </trkpt>
      <trkpt lat="35.172888" lon="-117.323409">
        <ele>872.699219</ele>
        <time>2021-02-07T00:12:47.000Z</time>
      </trkpt>
      <trkpt lat="35.172281" lon="-117.323513">
        <ele>870.296875</ele>
        <time>2021-02-07T00:12:54.000Z</time>
      </trkpt>
      <trkpt lat="35.171664" lon="-117.323623">
        <ele>867.500000</ele>
        <time>2021-02-07T00:13:01.000Z</time>
      </trkpt>
      <trkpt lat="35.171246" lon="-117.323721">
        <ele>866.500000</ele>
        <time>2021-02-07T00:13:06.000Z</time>
      </trkpt>
      <trkpt lat="35.171083" lon="-117.323783">
        <ele>866.199219</ele>
        <time>2021-02-07T00:13:08.000Z</time>
      </trkpt>
      <trkpt lat="35.170508" lon="-117.324012">
        <ele>864.097656</ele>
        <time>2021-02-07T00:13:15.000Z</time>
      </trkpt>
      <trkpt lat="35.169913" lon="-117.324231">
        <ele>862.500000</ele>
        <time>2021-02-07T00:13:23.000Z</time>
      </trkpt>
      <trkpt lat="35.169767" lon="-117.324298">
        <ele>862.199219</ele>
        <time>2021-02-07T00:13:25.000Z</time>
      </trkpt>
      <trkpt lat="35.169696" lon="-117.324339">
        <ele>861.796875</ele>
        <time>2021-02-07T00:13:26.000Z</time>
      </trkpt>
      <trkpt lat="35.16911" lon="-117.324718">
        <ele>858.796875</ele>
        <time>2021-02-07T00:13:34.000Z</time>
      </trkpt>
      <trkpt lat="35.168532" lon="-117.325112">
        <ele>856.000000</ele>
        <time>2021-02-07T00:13:42.000Z</time>
      </trkpt>
      <trkpt lat="35.168389" lon="-117.325199">
        <ele>855.398438</ele>
        <time>2021-02-07T00:13:44.000Z</time>
      </trkpt>
      <trkpt lat="35.16832" lon="-117.325252">
        <ele>855.000000</ele>
        <time>2021-02-07T00:13:45.000Z</time>
      </trkpt>
      <trkpt lat="35.168258" lon="-117.325312">
        <ele>854.796875</ele>
        <time>2021-02-07T00:13:46.000Z</time>
      </trkpt>
      <trkpt lat="35.168202" lon="-117.325387">
        <ele>854.500000</ele>
        <time>2021-02-07T00:13:47.000Z</time>
      </trkpt>
      <trkpt lat="35.168156" lon="-117.325471">
        <ele>854.199219</ele>
        <time>2021-02-07T00:13:48.000Z</time>
      </trkpt>
      <trkpt lat="35.168116" lon="-117.32556">
        <ele>854.000000</ele>
        <time>2021-02-07T00:13:49.000Z</time>
      </trkpt>
      <trkpt lat="35.168083" lon="-117.325654">
        <ele>854.000000</ele>
        <time>2021-02-07T00:13:50.000Z</time>
      </trkpt>
      <trkpt lat="35.168055" lon="-117.325752">
        <ele>853.699219</ele>
        <time>2021-02-07T00:13:51.000Z</time>
      </trkpt>
      <trkpt lat="35.167893" lon="-117.326468">
        <ele>851.398438</ele>
        <time>2021-02-07T00:13:58.000Z</time>
      </trkpt>
      <trkpt lat="35.167741" lon="-117.327215">
        <ele>848.398438</ele>
        <time>2021-02-07T00:14:05.000Z</time>
      </trkpt>
      <trkpt lat="35.167627" lon="-117.327877">
        <ele>846.199219</ele>
        <time>2021-02-07T00:14:11.000Z</time>
      </trkpt>
      <trkpt lat="35.167567" lon="-117.328662">
        <ele>844.097656</ele>
        <time>2021-02-07T00:14:18.000Z</time>
      </trkpt>
      <trkpt lat="35.167507" lon="-117.329244">
        <ele>842.699219</ele>
        <time>2021-02-07T00:14:23.000Z</time>
      </trkpt>
      <trkpt lat="35.167389" lon="-117.329939">
        <ele>840.699219</ele>
        <time>2021-02-07T00:14:29.000Z</time>
      </trkpt>
      <trkpt lat="35.167294" lon="-117.330382">
        <ele>838.796875</ele>
        <time>2021-02-07T00:14:33.000Z</time>
      </trkpt>
      <trkpt lat="35.167077" lon="-117.331038">
        <ele>836.597656</ele>
        <time>2021-02-07T00:14:39.000Z</time>
      </trkpt>
      <trkpt lat="35.166864" lon="-117.33174">
        <ele>834.296875</ele>
        <time>2021-02-07T00:14:45.000Z</time>
      </trkpt>
      <trkpt lat="35.166679" lon="-117.332485">
        <ele>832.000000</ele>
        <time>2021-02-07T00:14:51.000Z</time>
      </trkpt>
      <trkpt lat="35.166517" lon="-117.333068">
        <ele>830.199219</ele>
        <time>2021-02-07T00:14:56.000Z</time>
      </trkpt>
      <trkpt lat="35.166267" lon="-117.33371">
        <ele>827.898438</ele>
        <time>2021-02-07T00:15:02.000Z</time>
      </trkpt>
      <trkpt lat="35.16617" lon="-117.333909">
        <ele>827.199219</ele>
        <time>2021-02-07T00:15:04.000Z</time>
      </trkpt>
      <trkpt lat="35.166005" lon="-117.334178">
        <ele>826.199219</ele>
        <time>2021-02-07T00:15:07.000Z</time>
      </trkpt>
      <trkpt lat="35.165824" lon="-117.334438">
        <ele>825.199219</ele>
        <time>2021-02-07T00:15:10.000Z</time>
      </trkpt>
      <trkpt lat="35.16576" lon="-117.334517">
        <ele>824.699219</ele>
        <time>2021-02-07T00:15:11.000Z</time>
      </trkpt>
      <trkpt lat="35.165694" lon="-117.334589">
        <ele>824.398438</ele>
        <time>2021-02-07T00:15:12.000Z</time>
      </trkpt>
      <trkpt lat="35.165624" lon="-117.334655">
        <ele>824.097656</ele>
        <time>2021-02-07T00:15:13.000Z</time>
      </trkpt>
      <trkpt lat="35.165411" lon="-117.334832">
        <ele>822.898438</ele>
        <time>2021-02-07T00:15:16.000Z</time>
      </trkpt>
      <trkpt lat="35.165349" lon="-117.334878">
        <ele>822.699219</ele>
        <time>2021-02-07T00:15:17.000Z</time>
      </trkpt>
      <trkpt lat="35.16529" lon="-117.334913">
        <ele>822.398438</ele>
        <time>2021-02-07T00:15:18.000Z</time>
      </trkpt>
      <trkpt lat="35.165185" lon="-117.334961">
        <ele>821.898438</ele>
        <time>2021-02-07T00:15:20.000Z</time>
      </trkpt>
      <trkpt lat="35.164939" lon="-117.335073">
        <ele>821.296875</ele>
        <time>2021-02-07T00:15:25.000Z</time>
      </trkpt>
      <trkpt lat="35.16489" lon="-117.335108">
        <ele>821.000000</ele>
        <time>2021-02-07T00:15:26.000Z</time>
      </trkpt>
      <trkpt lat="35.164843" lon="-117.33515">
        <ele>820.898438</ele>
        <time>2021-02-07T00:15:27.000Z</time>
      </trkpt>
      <trkpt lat="35.164799" lon="-117.335197">
        <ele>820.699219</ele>
        <time>2021-02-07T00:15:28.000Z</time>
      </trkpt>
      <trkpt lat="35.164761" lon="-117.335249">
        <ele>820.398438</ele>
        <time>2021-02-07T00:15:29.000Z</time>
      </trkpt>
      <trkpt lat="35.164727" lon="-117.335303">
        <ele>820.398438</ele>
        <time>2021-02-07T00:15:30.000Z</time>
      </trkpt>
      <trkpt lat="35.164355" lon="-117.335953">
        <ele>818.097656</ele>
        <time>2021-02-07T00:15:42.000Z</time>
      </trkpt>
      <trkpt lat="35.16419" lon="-117.336254">
        <ele>816.898438</ele>
        <time>2021-02-07T00:15:47.000Z</time>
      </trkpt>
      <trkpt lat="35.164133" lon="-117.336393">
        <ele>816.398438</ele>
        <time>2021-02-07T00:15:49.000Z</time>
      </trkpt>
      <trkpt lat="35.164108" lon="-117.336469">
        <ele>816.097656</ele>
        <time>2021-02-07T00:15:50.000Z</time>
      </trkpt>
      <trkpt lat="35.163933" lon="-117.336984">
        <ele>814.199219</ele>
        <time>2021-02-07T00:15:56.000Z</time>
      </trkpt>
      <trkpt lat="35.163909" lon="-117.337076">
        <ele>814.000000</ele>
        <time>2021-02-07T00:15:57.000Z</time>
      </trkpt>
      <trkpt lat="35.163894" lon="-117.337169">
        <ele>813.597656</ele>
        <time>2021-02-07T00:15:58.000Z</time>
      </trkpt>
      <trkpt lat="35.163884" lon="-117.337265">
        <ele>813.296875</ele>
        <time>2021-02-07T00:15:59.000Z</time>
      </trkpt>
      <trkpt lat="35.163833" lon="-117.337988">
        <ele>811.398438</ele>
        <time>2021-02-07T00:16:06.000Z</time>
      </trkpt>
      <trkpt lat="35.163776" lon="-117.338408">
        <ele>810.296875</ele>
        <time>2021-02-07T00:16:10.000Z</time>
      </trkpt>
      <trkpt lat="35.163707" lon="-117.338716">
        <ele>809.199219</ele>
        <time>2021-02-07T00:16:13.000Z</time>
      </trkpt>
      <trkpt lat="35.163647" lon="-117.338916">
        <ele>808.199219</ele>
        <time>2021-02-07T00:16:15.000Z</time>
      </trkpt>
      <trkpt lat="35.163537" lon="-117.339205">
        <ele>806.898438</ele>
        <time>2021-02-07T00:16:18.000Z</time>
      </trkpt>
      <trkpt lat="35.163264" lon="-117.339878">
        <ele>805.296875</ele>
        <time>2021-02-07T00:16:25.000Z</time>
      </trkpt>
      <trkpt lat="35.163028" lon="-117.340618">
        <ele>803.296875</ele>
        <time>2021-02-07T00:16:32.000Z</time>
      </trkpt>
      <trkpt lat="35.162803" lon="-117.341395">
        <ele>801.296875</ele>
        <time>2021-02-07T00:16:51.000Z</time>
      </trkpt>
      <trkpt lat="35.162723" lon="-117.341619">
        <ele>801.097656</ele>
        <time>2021-02-07T00:17:17.000Z</time>
      </trkpt>
      <trkpt lat="35.162544" lon="-117.342204">
        <ele>799.898438</ele>
        <time>2021-02-07T00:17:28.000Z</time>
      </trkpt>
      <trkpt lat="35.162436" lon="-117.342714">
        <ele>798.699219</ele>
        <time>2021-02-07T00:17:34.000Z</time>
      </trkpt>
      <trkpt lat="35.162318" lon="-117.343426">
        <ele>796.796875</ele>
        <time>2021-02-07T00:17:41.000Z</time>
      </trkpt>
      <trkpt lat="35.162276" lon="-117.343631">
        <ele>796.296875</ele>
        <time>2021-02-07T00:17:43.000Z</time>
      </trkpt>
      <trkpt lat="35.162102" lon="-117.344375">
        <ele>794.296875</ele>
        <time>2021-02-07T00:17:50.000Z</time>
      </trkpt>
      <trkpt lat="35.162036" lon="-117.345182">
        <ele>792.699219</ele>
        <time>2021-02-07T00:17:57.000Z</time>
      </trkpt>
      <trkpt lat="35.162031" lon="-117.345667">
        <ele>791.296875</ele>
        <time>2021-02-07T00:18:01.000Z</time>
      </trkpt>
      <trkpt lat="35.162047" lon="-117.346405">
        <ele>789.500000</ele>
        <time>2021-02-07T00:18:07.000Z</time>
      </trkpt>
      <trkpt lat="35.161996" lon="-117.347007">
        <ele>788.296875</ele>
        <time>2021-02-07T00:18:12.000Z</time>
      </trkpt>
      <trkpt lat="35.161898" lon="-117.347765">
        <ele>786.398438</ele>
        <time>2021-02-07T00:18:18.000Z</time>
      </trkpt>
      <trkpt lat="35.16188" lon="-117.347892">
        <ele>786.000000</ele>
        <time>2021-02-07T00:18:19.000Z</time>
      </trkpt>
      <trkpt lat="35.161855" lon="-117.348012">
        <ele>785.296875</ele>
        <time>2021-02-07T00:18:20.000Z</time>
      </trkpt>
      <trkpt lat="35.161823" lon="-117.348123">
        <ele>785.199219</ele>
        <time>2021-02-07T00:18:21.000Z</time>
      </trkpt>
      <trkpt lat="35.161785" lon="-117.348231">
        <ele>784.699219</ele>
        <time>2021-02-07T00:18:22.000Z</time>
      </trkpt>
      <trkpt lat="35.161525" lon="-117.348879">
        <ele>782.597656</ele>
        <time>2021-02-07T00:18:28.000Z</time>
      </trkpt>
      <trkpt lat="35.161339" lon="-117.34931">
        <ele>781.199219</ele>
        <time>2021-02-07T00:18:32.000Z</time>
      </trkpt>
      <trkpt lat="35.161005" lon="-117.349912">
        <ele>779.796875</ele>
        <time>2021-02-07T00:18:38.000Z</time>
      </trkpt>
      <trkpt lat="35.160885" lon="-117.350108">
        <ele>779.199219</ele>
        <time>2021-02-07T00:18:40.000Z</time>
      </trkpt>
      <trkpt lat="35.160615" lon="-117.350465">
        <ele>778.097656</ele>
        <time>2021-02-07T00:18:44.000Z</time>
      </trkpt>
      <trkpt lat="35.16048" lon="-117.350627">
        <ele>777.398438</ele>
        <time>2021-02-07T00:18:46.000Z</time>
      </trkpt>
      <trkpt lat="35.160413" lon="-117.350695">
        <ele>777.000000</ele>
        <time>2021-02-07T00:18:47.000Z</time>
      </trkpt>
      <trkpt lat="35.160177" lon="-117.35091">
        <ele>775.597656</ele>
        <time>2021-02-07T00:18:51.000Z</time>
      </trkpt>
      <trkpt lat="35.160129" lon="-117.350969">
        <ele>775.597656</ele>
        <time>2021-02-07T00:18:52.000Z</time>
      </trkpt>
      <trkpt lat="35.160086" lon="-117.351035">
        <ele>775.796875</ele>
        <time>2021-02-07T00:18:53.000Z</time>
      </trkpt>
      <trkpt lat="35.16005" lon="-117.351104">
        <ele>775.597656</ele>
        <time>2021-02-07T00:18:54.000Z</time>
      </trkpt>
      <trkpt lat="35.159809" lon="-117.351581">
        <ele>774.199219</ele>
        <time>2021-02-07T00:19:02.000Z</time>
      </trkpt>
      <trkpt lat="35.159729" lon="-117.351694">
        <ele>773.500000</ele>
        <time>2021-02-07T00:19:04.000Z</time>
      </trkpt>
      <trkpt lat="35.159369" lon="-117.352188">
        <ele>771.699219</ele>
        <time>2021-02-07T00:19:12.000Z</time>
      </trkpt>
      <trkpt lat="35.159288" lon="-117.352332">
        <ele>771.296875</ele>
        <time>2021-02-07T00:19:14.000Z</time>
      </trkpt>
      <trkpt lat="35.15925" lon="-117.352409">
        <ele>771.097656</ele>
        <time>2021-02-07T00:19:15.000Z</time>
      </trkpt>
      <trkpt lat="35.159182" lon="-117.352573">
        <ele>770.699219</ele>
        <time>2021-02-07T00:19:17.000Z</time>
      </trkpt>
      <trkpt lat="35.159042" lon="-117.352922">
        <ele>769.500000</ele>
        <time>2021-02-07T00:19:21.000Z</time>
      </trkpt>
      <trkpt lat="35.158997" lon="-117.353007">
        <ele>769.199219</ele>
        <time>2021-02-07T00:19:22.000Z</time>
      </trkpt>
      <trkpt lat="35.158943" lon="-117.353089">
        <ele>768.898438</ele>
        <time>2021-02-07T00:19:23.000Z</time>
      </trkpt>
      <trkpt lat="35.158783" lon="-117.353346">
        <ele>768.398438</ele>
        <time>2021-02-07T00:19:26.000Z</time>
      </trkpt>
      <trkpt lat="35.15874" lon="-117.353444">
        <ele>768.097656</ele>
        <time>2021-02-07T00:19:27.000Z</time>
      </trkpt>
      <trkpt lat="35.158704" lon="-117.353546">
        <ele>767.597656</ele>
        <time>2021-02-07T00:19:28.000Z</time>
      </trkpt>
      <trkpt lat="35.158675" lon="-117.35365">
        <ele>767.199219</ele>
        <time>2021-02-07T00:19:29.000Z</time>
      </trkpt>
      <trkpt lat="35.158655" lon="-117.35376">
        <ele>767.000000</ele>
        <time>2021-02-07T00:19:30.000Z</time>
      </trkpt>
      <trkpt lat="35.15855" lon="-117.354453">
        <ele>765.199219</ele>
        <time>2021-02-07T00:19:36.000Z</time>
      </trkpt>
      <trkpt lat="35.158451" lon="-117.354936">
        <ele>763.796875</ele>
        <time>2021-02-07T00:19:40.000Z</time>
      </trkpt>
      <trkpt lat="35.158271" lon="-117.355523">
        <ele>762.000000</ele>
        <time>2021-02-07T00:19:45.000Z</time>
      </trkpt>
      <trkpt lat="35.158143" lon="-117.355853">
        <ele>761.199219</ele>
        <time>2021-02-07T00:19:48.000Z</time>
      </trkpt>
      <trkpt lat="35.157941" lon="-117.356245">
        <ele>759.898438</ele>
        <time>2021-02-07T00:19:52.000Z</time>
      </trkpt>
      <trkpt lat="35.157584" lon="-117.356875">
        <ele>757.898438</ele>
        <time>2021-02-07T00:19:59.000Z</time>
      </trkpt>
      <trkpt lat="35.157232" lon="-117.357512">
        <ele>756.097656</ele>
        <time>2021-02-07T00:20:06.000Z</time>
      </trkpt>
      <trkpt lat="35.157055" lon="-117.357896">
        <ele>755.000000</ele>
        <time>2021-02-07T00:20:10.000Z</time>
      </trkpt>
      <trkpt lat="35.156983" lon="-117.358098">
        <ele>754.699219</ele>
        <time>2021-02-07T00:20:12.000Z</time>
      </trkpt>
      <trkpt lat="35.156924" lon="-117.358308">
        <ele>754.398438</ele>
        <time>2021-02-07T00:20:14.000Z</time>
      </trkpt>
      <trkpt lat="35.156878" lon="-117.358515">
        <ele>753.898438</ele>
        <time>2021-02-07T00:20:16.000Z</time>
      </trkpt>
      <trkpt lat="35.156767" lon="-117.358994">
        <ele>752.699219</ele>
        <time>2021-02-07T00:20:21.000Z</time>
      </trkpt>
      <trkpt lat="35.156709" lon="-117.359168">
        <ele>752.000000</ele>
        <time>2021-02-07T00:20:23.000Z</time>
      </trkpt>
      <trkpt lat="35.156568" lon="-117.359506">
        <ele>750.796875</ele>
        <time>2021-02-07T00:20:27.000Z</time>
      </trkpt>
      <trkpt lat="35.156274" lon="-117.360109">
        <ele>749.199219</ele>
        <time>2021-02-07T00:20:34.000Z</time>
      </trkpt>
      <trkpt lat="35.156174" lon="-117.360275">
        <ele>748.699219</ele>
        <time>2021-02-07T00:20:36.000Z</time>
      </trkpt>
      <trkpt lat="35.156123" lon="-117.360348">
        <ele>748.398438</ele>
        <time>2021-02-07T00:20:37.000Z</time>
      </trkpt>
      <trkpt lat="35.156071" lon="-117.360413">
        <ele>748.296875</ele>
        <time>2021-02-07T00:20:38.000Z</time>
      </trkpt>
      <trkpt lat="35.156016" lon="-117.360472">
        <ele>747.898438</ele>
        <time>2021-02-07T00:20:39.000Z</time>
      </trkpt>
      <trkpt lat="35.155957" lon="-117.360527">
        <ele>747.597656</ele>
        <time>2021-02-07T00:20:40.000Z</time>
      </trkpt>
      <trkpt lat="35.155564" lon="-117.360903">
        <ele>746.097656</ele>
        <time>2021-02-07T00:20:47.000Z</time>
      </trkpt>
      <trkpt lat="35.155432" lon="-117.361067">
        <ele>745.796875</ele>
        <time>2021-02-07T00:20:50.000Z</time>
      </trkpt>
      <trkpt lat="35.155016" lon="-117.361664">
        <ele>743.500000</ele>
        <time>2021-02-07T00:21:01.000Z</time>
      </trkpt>
      <trkpt lat="35.154617" lon="-117.362077">
        <ele>742.296875</ele>
        <time>2021-02-07T00:21:10.000Z</time>
      </trkpt>
      <trkpt lat="35.15451" lon="-117.362169">
        <ele>742.000000</ele>
        <time>2021-02-07T00:21:12.000Z</time>
      </trkpt>
      <trkpt lat="35.154449" lon="-117.362214">
        <ele>741.796875</ele>
        <time>2021-02-07T00:21:13.000Z</time>
      </trkpt>
      <trkpt lat="35.154381" lon="-117.362255">
        <ele>741.597656</ele>
        <time>2021-02-07T00:21:14.000Z</time>
      </trkpt>
      <trkpt lat="35.154306" lon="-117.362287">
        <ele>741.398438</ele>
        <time>2021-02-07T00:21:15.000Z</time>
      </trkpt>
      <trkpt lat="35.154226" lon="-117.362312">
        <ele>741.398438</ele>
        <time>2021-02-07T00:21:16.000Z</time>
      </trkpt>
      <trkpt lat="35.154063" lon="-117.362364">
        <ele>740.898438</ele>
        <time>2021-02-07T00:21:18.000Z</time>
      </trkpt>
      <trkpt lat="35.153992" lon="-117.362397">
        <ele>740.796875</ele>
        <time>2021-02-07T00:21:19.000Z</time>
      </trkpt>
      <trkpt lat="35.153928" lon="-117.362437">
        <ele>740.500000</ele>
        <time>2021-02-07T00:21:20.000Z</time>
      </trkpt>
      <trkpt lat="35.15387" lon="-117.362487">
        <ele>740.699219</ele>
        <time>2021-02-07T00:21:21.000Z</time>
      </trkpt>
      <trkpt lat="35.153817" lon="-117.362546">
        <ele>740.699219</ele>
        <time>2021-02-07T00:21:22.000Z</time>
      </trkpt>
      <trkpt lat="35.153768" lon="-117.362612">
        <ele>740.500000</ele>
        <time>2021-02-07T00:21:23.000Z</time>
      </trkpt>
      <trkpt lat="35.153547" lon="-117.362908">
        <ele>739.500000</ele>
        <time>2021-02-07T00:21:27.000Z</time>
      </trkpt>
      <trkpt lat="35.153478" lon="-117.36297">
        <ele>739.398438</ele>
        <time>2021-02-07T00:21:28.000Z</time>
      </trkpt>
      <trkpt lat="35.153401" lon="-117.363021">
        <ele>739.000000</ele>
        <time>2021-02-07T00:21:29.000Z</time>
      </trkpt>
      <trkpt lat="35.153321" lon="-117.363058">
        <ele>738.597656</ele>
        <time>2021-02-07T00:21:30.000Z</time>
      </trkpt>
      <trkpt lat="35.153236" lon="-117.363087">
        <ele>738.398438</ele>
        <time>2021-02-07T00:21:31.000Z</time>
      </trkpt>
      <trkpt lat="35.152608" lon="-117.363303">
        <ele>736.898438</ele>
        <time>2021-02-07T00:21:38.000Z</time>
      </trkpt>
      <trkpt lat="35.152059" lon="-117.36354">
        <ele>735.000000</ele>
        <time>2021-02-07T00:21:44.000Z</time>
      </trkpt>
      <trkpt lat="35.151972" lon="-117.363596">
        <ele>734.500000</ele>
        <time>2021-02-07T00:21:45.000Z</time>
      </trkpt>
      <trkpt lat="35.151801" lon="-117.363723">
        <ele>733.597656</ele>
        <time>2021-02-07T00:21:47.000Z</time>
      </trkpt>
      <trkpt lat="35.151462" lon="-117.363982">
        <ele>732.296875</ele>
        <time>2021-02-07T00:21:51.000Z</time>
      </trkpt>
      <trkpt lat="35.151373" lon="-117.364035">
        <ele>732.199219</ele>
        <time>2021-02-07T00:21:52.000Z</time>
      </trkpt>
      <trkpt lat="35.151281" lon="-117.36408">
        <ele>732.296875</ele>
        <time>2021-02-07T00:21:53.000Z</time>
      </trkpt>
      <trkpt lat="35.151188" lon="-117.364118">
        <ele>732.296875</ele>
        <time>2021-02-07T00:21:54.000Z</time>
      </trkpt>
      <trkpt lat="35.151094" lon="-117.364146">
        <ele>732.199219</ele>
        <time>2021-02-07T00:21:55.000Z</time>
      </trkpt>
      <trkpt lat="35.150441" lon="-117.364295">
        <ele>730.796875</ele>
        <time>2021-02-07T00:22:02.000Z</time>
      </trkpt>
      <trkpt lat="35.150264" lon="-117.364367">
        <ele>730.398438</ele>
        <time>2021-02-07T00:22:04.000Z</time>
      </trkpt>
      <trkpt lat="35.150179" lon="-117.364415">
        <ele>730.199219</ele>
        <time>2021-02-07T00:22:05.000Z</time>
      </trkpt>
      <trkpt lat="35.150014" lon="-117.364526">
        <ele>729.597656</ele>
        <time>2021-02-07T00:22:07.000Z</time>
      </trkpt>
      <trkpt lat="35.149772" lon="-117.364714">
        <ele>728.199219</ele>
        <time>2021-02-07T00:22:10.000Z</time>
      </trkpt>
      <trkpt lat="35.149619" lon="-117.364856">
        <ele>727.398438</ele>
        <time>2021-02-07T00:22:12.000Z</time>
      </trkpt>
      <trkpt lat="35.149198" lon="-117.365345">
        <ele>725.796875</ele>
        <time>2021-02-07T00:22:18.000Z</time>
      </trkpt>
      <trkpt lat="35.14875" lon="-117.365864">
        <ele>724.597656</ele>
        <time>2021-02-07T00:22:25.000Z</time>
      </trkpt>
      <trkpt lat="35.148419" lon="-117.366294">
        <ele>723.296875</ele>
        <time>2021-02-07T00:22:32.000Z</time>
      </trkpt>
      <trkpt lat="35.148313" lon="-117.3664">
        <ele>722.898438</ele>
        <time>2021-02-07T00:22:34.000Z</time>
      </trkpt>
      <trkpt lat="35.147809" lon="-117.36685">
        <ele>721.398438</ele>
        <time>2021-02-07T00:22:43.000Z</time>
      </trkpt>
      <trkpt lat="35.147507" lon="-117.367066">
        <ele>721.296875</ele>
        <time>2021-02-07T00:22:47.000Z</time>
      </trkpt>
      <trkpt lat="35.147335" lon="-117.367168">
        <ele>721.000000</ele>
        <time>2021-02-07T00:22:49.000Z</time>
      </trkpt>
      <trkpt lat="35.147151" lon="-117.367253">
        <ele>720.796875</ele>
        <time>2021-02-07T00:22:51.000Z</time>
      </trkpt>
      <trkpt lat="35.147054" lon="-117.367287">
        <ele>720.597656</ele>
        <time>2021-02-07T00:22:52.000Z</time>
      </trkpt>
      <trkpt lat="35.146501" lon="-117.36747">
        <ele>719.296875</ele>
        <time>2021-02-07T00:22:58.000Z</time>
      </trkpt>
      <trkpt lat="35.14643" lon="-117.367514">
        <ele>719.097656</ele>
        <time>2021-02-07T00:22:59.000Z</time>
      </trkpt>
      <trkpt lat="35.146366" lon="-117.367567">
        <ele>718.597656</ele>
        <time>2021-02-07T00:23:00.000Z</time>
      </trkpt>
      <trkpt lat="35.146309" lon="-117.367631">
        <ele>718.097656</ele>
        <time>2021-02-07T00:23:01.000Z</time>
      </trkpt>
      <trkpt lat="35.146258" lon="-117.367703">
        <ele>717.796875</ele>
        <time>2021-02-07T00:23:02.000Z</time>
      </trkpt>
      <trkpt lat="35.14621" lon="-117.367783">
        <ele>716.699219</ele>
        <time>2021-02-07T00:23:03.000Z</time>
      </trkpt>
      <trkpt lat="35.145867" lon="-117.368369">
        <ele>714.699219</ele>
        <time>2021-02-07T00:23:10.000Z</time>
      </trkpt>
      <trkpt lat="35.1455" lon="-117.368976">
        <ele>713.699219</ele>
        <time>2021-02-07T00:23:17.000Z</time>
      </trkpt>
      <trkpt lat="35.14544" lon="-117.369056">
        <ele>713.597656</ele>
        <time>2021-02-07T00:23:18.000Z</time>
      </trkpt>
      <trkpt lat="35.145124" lon="-117.369456">
        <ele>712.597656</ele>
        <time>2021-02-07T00:23:23.000Z</time>
      </trkpt>
      <trkpt lat="35.145072" lon="-117.369546">
        <ele>712.296875</ele>
        <time>2021-02-07T00:23:24.000Z</time>
      </trkpt>
      <trkpt lat="35.144931" lon="-117.369812">
        <ele>711.597656</ele>
        <time>2021-02-07T00:23:27.000Z</time>
      </trkpt>
      <trkpt lat="35.144883" lon="-117.369884">
        <ele>711.296875</ele>
        <time>2021-02-07T00:23:28.000Z</time>
      </trkpt>
      <trkpt lat="35.144833" lon="-117.369946">
        <ele>711.199219</ele>
        <time>2021-02-07T00:23:29.000Z</time>
      </trkpt>
      <trkpt lat="35.144729" lon="-117.37006">
        <ele>710.796875</ele>
        <time>2021-02-07T00:23:31.000Z</time>
      </trkpt>
      <trkpt lat="35.144673" lon="-117.370109">
        <ele>710.699219</ele>
        <time>2021-02-07T00:23:32.000Z</time>
      </trkpt>
      <trkpt lat="35.144618" lon="-117.37015">
        <ele>710.597656</ele>
        <time>2021-02-07T00:23:33.000Z</time>
      </trkpt>
      <trkpt lat="35.144254" lon="-117.370396">
        <ele>710.000000</ele>
        <time>2021-02-07T00:23:40.000Z</time>
      </trkpt>
      <trkpt lat="35.144197" lon="-117.370417">
        <ele>710.097656</ele>
        <time>2021-02-07T00:23:41.000Z</time>
      </trkpt>
      <trkpt lat="35.144139" lon="-117.370426">
        <ele>710.097656</ele>
        <time>2021-02-07T00:23:42.000Z</time>
      </trkpt>
      <trkpt lat="35.144083" lon="-117.370423">
        <ele>710.000000</ele>
        <time>2021-02-07T00:23:43.000Z</time>
      </trkpt>
      <trkpt lat="35.143924" lon="-117.370398">
        <ele>709.699219</ele>
        <time>2021-02-07T00:23:46.000Z</time>
      </trkpt>
      <trkpt lat="35.143772" lon="-117.370347">
        <ele>709.699219</ele>
        <time>2021-02-07T00:23:49.000Z</time>
      </trkpt>
      <trkpt lat="35.143531" lon="-117.370251">
        <ele>709.699219</ele>
        <time>2021-02-07T00:23:53.000Z</time>
      </trkpt>
      <trkpt lat="35.142917" lon="-117.369964">
        <ele>709.000000</ele>
        <time>2021-02-07T00:24:02.000Z</time>
      </trkpt>
      <trkpt lat="35.142652" lon="-117.36985">
        <ele>708.500000</ele>
        <time>2021-02-07T00:24:06.000Z</time>
      </trkpt>
      <trkpt lat="35.142069" lon="-117.36954">
        <ele>707.500000</ele>
        <time>2021-02-07T00:24:15.000Z</time>
      </trkpt>
      <trkpt lat="35.14193" lon="-117.369486">
        <ele>707.097656</ele>
        <time>2021-02-07T00:24:18.000Z</time>
      </trkpt>
      <trkpt lat="35.141327" lon="-117.369266">
        <ele>706.296875</ele>
        <time>2021-02-07T00:24:27.000Z</time>
      </trkpt>
      <trkpt lat="35.140774" lon="-117.368989">
        <ele>705.699219</ele>
        <time>2021-02-07T00:24:36.000Z</time>
      </trkpt>
      <trkpt lat="35.140175" lon="-117.368686">
        <ele>704.296875</ele>
        <time>2021-02-07T00:24:43.000Z</time>
      </trkpt>
      <trkpt lat="35.139985" lon="-117.368595">
        <ele>704.097656</ele>
        <time>2021-02-07T00:24:45.000Z</time>
      </trkpt>
      <trkpt lat="35.139892" lon="-117.36854">
        <ele>703.796875</ele>
        <time>2021-02-07T00:24:46.000Z</time>
      </trkpt>
      <trkpt lat="35.139559" lon="-117.368317">
        <ele>703.500000</ele>
        <time>2021-02-07T00:24:50.000Z</time>
      </trkpt>
      <trkpt lat="35.139487" lon="-117.368286">
        <ele>703.500000</ele>
        <time>2021-02-07T00:24:51.000Z</time>
      </trkpt>
      <trkpt lat="35.139419" lon="-117.368267">
        <ele>703.796875</ele>
        <time>2021-02-07T00:24:52.000Z</time>
      </trkpt>
      <trkpt lat="35.139356" lon="-117.368256">
        <ele>704.000000</ele>
        <time>2021-02-07T00:24:53.000Z</time>
      </trkpt>
      <trkpt lat="35.139233" lon="-117.368239">
        <ele>704.398438</ele>
        <time>2021-02-07T00:24:55.000Z</time>
      </trkpt>
      <trkpt lat="35.139169" lon="-117.368214">
        <ele>704.296875</ele>
        <time>2021-02-07T00:24:56.000Z</time>
      </trkpt>
      <trkpt lat="35.139104" lon="-117.368175">
        <ele>704.097656</ele>
        <time>2021-02-07T00:24:57.000Z</time>
      </trkpt>
      <trkpt lat="35.13904" lon="-117.368123">
        <ele>704.199219</ele>
        <time>2021-02-07T00:24:58.000Z</time>
      </trkpt>
      <trkpt lat="35.138515" lon="-117.367664">
        <ele>703.296875</ele>
        <time>2021-02-07T00:25:05.000Z</time>
      </trkpt>
      <trkpt lat="35.138" lon="-117.367215">
        <ele>702.796875</ele>
        <time>2021-02-07T00:25:11.000Z</time>
      </trkpt>
      <trkpt lat="35.13745" lon="-117.366748">
        <ele>702.398438</ele>
        <time>2021-02-07T00:25:20.000Z</time>
      </trkpt>
      <trkpt lat="35.137182" lon="-117.366528">
        <ele>701.898438</ele>
        <time>2021-02-07T00:25:34.000Z</time>
      </trkpt>
      <trkpt lat="35.137182" lon="-117.366528">
        <ele>701.000000</ele>
        <time>2021-02-07T00:29:53.000Z</time>
      </trkpt>
      <trkpt lat="35.13709" lon="-117.366451">
        <ele>701.000000</ele>
        <time>2021-02-07T00:29:54.000Z</time>
      </trkpt>
      <trkpt lat="35.136777" lon="-117.36617">
        <ele>700.597656</ele>
        <time>2021-02-07T00:30:01.000Z</time>
      </trkpt>
      <trkpt lat="35.136319" lon="-117.365661">
        <ele>699.398438</ele>
        <time>2021-02-07T00:30:09.000Z</time>
      </trkpt>
      <trkpt lat="35.136186" lon="-117.365536">
        <ele>699.199219</ele>
        <time>2021-02-07T00:30:11.000Z</time>
      </trkpt>
      <trkpt lat="35.136119" lon="-117.365481">
        <ele>699.000000</ele>
        <time>2021-02-07T00:30:12.000Z</time>
      </trkpt>
      <trkpt lat="35.13598" lon="-117.36538">
        <ele>698.296875</ele>
        <time>2021-02-07T00:30:14.000Z</time>
      </trkpt>
      <trkpt lat="35.135655" lon="-117.365179">
        <ele>698.398438</ele>
        <time>2021-02-07T00:30:19.000Z</time>
      </trkpt>
      <trkpt lat="35.135605" lon="-117.365133">
        <ele>698.000000</ele>
        <time>2021-02-07T00:30:20.000Z</time>
      </trkpt>
      <trkpt lat="35.135555" lon="-117.365077">
        <ele>698.199219</ele>
        <time>2021-02-07T00:30:21.000Z</time>
      </trkpt>
      <trkpt lat="35.135506" lon="-117.365014">
        <ele>698.500000</ele>
        <time>2021-02-07T00:30:22.000Z</time>
      </trkpt>
      <trkpt lat="35.135461" lon="-117.364944">
        <ele>698.296875</ele>
        <time>2021-02-07T00:30:23.000Z</time>
      </trkpt>
      <trkpt lat="35.135235" lon="-117.364611">
        <ele>697.597656</ele>
        <time>2021-02-07T00:30:27.000Z</time>
      </trkpt>
      <trkpt lat="35.135165" lon="-117.364525">
        <ele>697.796875</ele>
        <time>2021-02-07T00:30:28.000Z</time>
      </trkpt>
      <trkpt lat="35.134685" lon="-117.364">
        <ele>697.199219</ele>
        <time>2021-02-07T00:30:34.000Z</time>
      </trkpt>
      <trkpt lat="35.134515" lon="-117.36379">
        <ele>697.097656</ele>
        <time>2021-02-07T00:30:36.000Z</time>
      </trkpt>
      <trkpt lat="35.134441" lon="-117.363683">
        <ele>696.796875</ele>
        <time>2021-02-07T00:30:37.000Z</time>
      </trkpt>
      <trkpt lat="35.134116" lon="-117.363201">
        <ele>695.597656</ele>
        <time>2021-02-07T00:30:42.000Z</time>
      </trkpt>
      <trkpt lat="35.133972" lon="-117.363048">
        <ele>695.500000</ele>
        <time>2021-02-07T00:30:44.000Z</time>
      </trkpt>
      <trkpt lat="35.133495" lon="-117.362601">
        <ele>695.597656</ele>
        <time>2021-02-07T00:30:50.000Z</time>
      </trkpt>
      <trkpt lat="35.132954" lon="-117.362156">
        <ele>694.898438</ele>
        <time>2021-02-07T00:30:56.000Z</time>
      </trkpt>
      <trkpt lat="35.132449" lon="-117.3618">
        <ele>694.000000</ele>
        <time>2021-02-07T00:31:01.000Z</time>
      </trkpt>
      <trkpt lat="35.132015" lon="-117.361518">
        <ele>693.097656</ele>
        <time>2021-02-07T00:31:05.000Z</time>
      </trkpt>
      <trkpt lat="35.131429" lon="-117.361217">
        <ele>691.199219</ele>
        <time>2021-02-07T00:31:10.000Z</time>
      </trkpt>
      <trkpt lat="35.13093" lon="-117.360967">
        <ele>690.699219</ele>
        <time>2021-02-07T00:31:14.000Z</time>
      </trkpt>
      <trkpt lat="35.130414" lon="-117.360674">
        <ele>689.796875</ele>
        <time>2021-02-07T00:31:18.000Z</time>
      </trkpt>
      <trkpt lat="35.130158" lon="-117.360501">
        <ele>689.398438</ele>
        <time>2021-02-07T00:31:20.000Z</time>
      </trkpt>
      <trkpt lat="35.129663" lon="-117.360116">
        <ele>688.597656</ele>
        <time>2021-02-07T00:31:24.000Z</time>
      </trkpt>
      <trkpt lat="35.129174" lon="-117.359764">
        <ele>688.097656</ele>
        <time>2021-02-07T00:31:28.000Z</time>
      </trkpt>
      <trkpt lat="35.128672" lon="-117.359455">
        <ele>687.199219</ele>
        <time>2021-02-07T00:31:32.000Z</time>
      </trkpt>
      <trkpt lat="35.128152" lon="-117.359154">
        <ele>686.000000</ele>
        <time>2021-02-07T00:31:36.000Z</time>
      </trkpt>
      <trkpt lat="35.127612" lon="-117.35888">
        <ele>684.699219</ele>
        <time>2021-02-07T00:31:40.000Z</time>
      </trkpt>
      <trkpt lat="35.126998" lon="-117.358597">
        <ele>683.699219</ele>
        <time>2021-02-07T00:31:45.000Z</time>
      </trkpt>
      <trkpt lat="35.126666" lon="-117.358469">
        <ele>682.796875</ele>
        <time>2021-02-07T00:31:48.000Z</time>
      </trkpt>
      <trkpt lat="35.126101" lon="-117.358297">
        <ele>681.500000</ele>
        <time>2021-02-07T00:31:53.000Z</time>
      </trkpt>
      <trkpt lat="35.125523" lon="-117.35816">
        <ele>680.699219</ele>
        <time>2021-02-07T00:31:58.000Z</time>
      </trkpt>
      <trkpt lat="35.12494" lon="-117.358007">
        <ele>680.000000</ele>
        <time>2021-02-07T00:32:03.000Z</time>
      </trkpt>
      <trkpt lat="35.124599" lon="-117.357872">
        <ele>679.500000</ele>
        <time>2021-02-07T00:32:06.000Z</time>
      </trkpt>
      <trkpt lat="35.124151" lon="-117.357634">
        <ele>679.398438</ele>
        <time>2021-02-07T00:32:10.000Z</time>
      </trkpt>
      <trkpt lat="35.12366" lon="-117.357324">
        <ele>679.000000</ele>
        <time>2021-02-07T00:32:15.000Z</time>
      </trkpt>
      <trkpt lat="35.123081" lon="-117.356908">
        <ele>678.296875</ele>
        <time>2021-02-07T00:32:21.000Z</time>
      </trkpt>
      <trkpt lat="35.122509" lon="-117.356539">
        <ele>677.796875</ele>
        <time>2021-02-07T00:32:29.000Z</time>
      </trkpt>
      <trkpt lat="35.121909" lon="-117.356168">
        <ele>677.097656</ele>
        <time>2021-02-07T00:32:38.000Z</time>
      </trkpt>
      <trkpt lat="35.121439" lon="-117.355935">
        <ele>676.398438</ele>
        <time>2021-02-07T00:32:43.000Z</time>
      </trkpt>
      <trkpt lat="35.120847" lon="-117.355701">
        <ele>674.699219</ele>
        <time>2021-02-07T00:32:48.000Z</time>
      </trkpt>
      <trkpt lat="35.120488" lon="-117.355583">
        <ele>674.000000</ele>
        <time>2021-02-07T00:32:51.000Z</time>
      </trkpt>
      <trkpt lat="35.120243" lon="-117.35553">
        <ele>673.500000</ele>
        <time>2021-02-07T00:32:53.000Z</time>
      </trkpt>
      <trkpt lat="35.119993" lon="-117.3555">
        <ele>673.398438</ele>
        <time>2021-02-07T00:32:55.000Z</time>
      </trkpt>
      <trkpt lat="35.119361" lon="-117.355445">
        <ele>673.296875</ele>
        <time>2021-02-07T00:33:00.000Z</time>
      </trkpt>
      <trkpt lat="35.118877" lon="-117.355429">
        <ele>673.699219</ele>
        <time>2021-02-07T00:33:04.000Z</time>
      </trkpt>
      <trkpt lat="35.11876" lon="-117.3554">
        <ele>673.398438</ele>
        <time>2021-02-07T00:33:05.000Z</time>
      </trkpt>
      <trkpt lat="35.118177" lon="-117.355224">
        <ele>672.000000</ele>
        <time>2021-02-07T00:33:10.000Z</time>
      </trkpt>
      <trkpt lat="35.117576" lon="-117.355074">
        <ele>671.597656</ele>
        <time>2021-02-07T00:33:15.000Z</time>
      </trkpt>
      <trkpt lat="35.116919" lon="-117.354898">
        <ele>670.796875</ele>
        <time>2021-02-07T00:33:20.000Z</time>
      </trkpt>
      <trkpt lat="35.116344" lon="-117.354722">
        <ele>669.097656</ele>
        <time>2021-02-07T00:33:25.000Z</time>
      </trkpt>
      <trkpt lat="35.115744" lon="-117.354494">
        <ele>668.296875</ele>
        <time>2021-02-07T00:33:32.000Z</time>
      </trkpt>
      <trkpt lat="35.115197" lon="-117.354237">
        <ele>667.898438</ele>
        <time>2021-02-07T00:33:39.000Z</time>
      </trkpt>
      <trkpt lat="35.114611" lon="-117.353976">
        <ele>667.296875</ele>
        <time>2021-02-07T00:33:46.000Z</time>
      </trkpt>
      <trkpt lat="35.114052" lon="-117.353705">
        <ele>666.699219</ele>
        <time>2021-02-07T00:33:54.000Z</time>
      </trkpt>
      <trkpt lat="35.113438" lon="-117.353406">
        <ele>666.097656</ele>
        <time>2021-02-07T00:34:03.000Z</time>
      </trkpt>
      <trkpt lat="35.113038" lon="-117.35322">
        <ele>665.000000</ele>
        <time>2021-02-07T00:34:09.000Z</time>
      </trkpt>
      <trkpt lat="35.112893" lon="-117.353179">
        <ele>664.199219</ele>
        <time>2021-02-07T00:34:11.000Z</time>
      </trkpt>
      <trkpt lat="35.112818" lon="-117.353164">
        <ele>664.000000</ele>
        <time>2021-02-07T00:34:12.000Z</time>
      </trkpt>
      <trkpt lat="35.112741" lon="-117.353155">
        <ele>663.796875</ele>
        <time>2021-02-07T00:34:13.000Z</time>
      </trkpt>
      <trkpt lat="35.112662" lon="-117.353151">
        <ele>663.597656</ele>
        <time>2021-02-07T00:34:14.000Z</time>
      </trkpt>
      <trkpt lat="35.1125" lon="-117.353155">
        <ele>663.500000</ele>
        <time>2021-02-07T00:34:16.000Z</time>
      </trkpt>
      <trkpt lat="35.111893" lon="-117.353194">
        <ele>663.398438</ele>
        <time>2021-02-07T00:34:23.000Z</time>
      </trkpt>
      <trkpt lat="35.111806" lon="-117.353185">
        <ele>663.398438</ele>
        <time>2021-02-07T00:34:24.000Z</time>
      </trkpt>
      <trkpt lat="35.11163" lon="-117.353149">
        <ele>663.398438</ele>
        <time>2021-02-07T00:34:26.000Z</time>
      </trkpt>
      <trkpt lat="35.111445" lon="-117.353092">
        <ele>663.199219</ele>
        <time>2021-02-07T00:34:28.000Z</time>
      </trkpt>
      <trkpt lat="35.110812" lon="-117.352834">
        <ele>662.398438</ele>
        <time>2021-02-07T00:34:34.000Z</time>
      </trkpt>
      <trkpt lat="35.110212" lon="-117.352596">
        <ele>661.898438</ele>
        <time>2021-02-07T00:34:39.000Z</time>
      </trkpt>
      <trkpt lat="35.109844" lon="-117.352435">
        <ele>661.398438</ele>
        <time>2021-02-07T00:34:42.000Z</time>
      </trkpt>
      <trkpt lat="35.109246" lon="-117.352098">
        <ele>660.796875</ele>
        <time>2021-02-07T00:34:47.000Z</time>
      </trkpt>
      <trkpt lat="35.108759" lon="-117.351803">
        <ele>660.000000</ele>
        <time>2021-02-07T00:34:51.000Z</time>
      </trkpt>
      <trkpt lat="35.108255" lon="-117.351506">
        <ele>659.000000</ele>
        <time>2021-02-07T00:34:55.000Z</time>
      </trkpt>
      <trkpt lat="35.107982" lon="-117.35137">
        <ele>658.398438</ele>
        <time>2021-02-07T00:34:57.000Z</time>
      </trkpt>
      <trkpt lat="35.10754" lon="-117.351202">
        <ele>657.699219</ele>
        <time>2021-02-07T00:35:00.000Z</time>
      </trkpt>
      <trkpt lat="35.106965" lon="-117.351001">
        <ele>656.796875</ele>
        <time>2021-02-07T00:35:04.000Z</time>
      </trkpt>
      <trkpt lat="35.106348" lon="-117.350791">
        <ele>656.000000</ele>
        <time>2021-02-07T00:35:09.000Z</time>
      </trkpt>
      <trkpt lat="35.106117" lon="-117.350694">
        <ele>655.699219</ele>
        <time>2021-02-07T00:35:11.000Z</time>
      </trkpt>
      <trkpt lat="35.105889" lon="-117.350572">
        <ele>655.296875</ele>
        <time>2021-02-07T00:35:13.000Z</time>
      </trkpt>
      <trkpt lat="35.105337" lon="-117.350218">
        <ele>654.398438</ele>
        <time>2021-02-07T00:35:18.000Z</time>
      </trkpt>
      <trkpt lat="35.105226" lon="-117.350168">
        <ele>654.097656</ele>
        <time>2021-02-07T00:35:19.000Z</time>
      </trkpt>
      <trkpt lat="35.105113" lon="-117.35013">
        <ele>653.796875</ele>
        <time>2021-02-07T00:35:20.000Z</time>
      </trkpt>
      <trkpt lat="35.104996" lon="-117.350103">
        <ele>653.500000</ele>
        <time>2021-02-07T00:35:21.000Z</time>
      </trkpt>
      <trkpt lat="35.104876" lon="-117.350084">
        <ele>653.097656</ele>
        <time>2021-02-07T00:35:22.000Z</time>
      </trkpt>
      <trkpt lat="35.104754" lon="-117.350075">
        <ele>652.796875</ele>
        <time>2021-02-07T00:35:23.000Z</time>
      </trkpt>
      <trkpt lat="35.104375" lon="-117.350084">
        <ele>652.296875</ele>
        <time>2021-02-07T00:35:26.000Z</time>
      </trkpt>
      <trkpt lat="35.103708" lon="-117.350115">
        <ele>652.000000</ele>
        <time>2021-02-07T00:35:31.000Z</time>
      </trkpt>
      <trkpt lat="35.103154" lon="-117.350142">
        <ele>651.398438</ele>
        <time>2021-02-07T00:35:35.000Z</time>
      </trkpt>
      <trkpt lat="35.102592" lon="-117.350124">
        <ele>650.699219</ele>
        <time>2021-02-07T00:35:39.000Z</time>
      </trkpt>
      <trkpt lat="35.102173" lon="-117.350072">
        <ele>650.500000</ele>
        <time>2021-02-07T00:35:42.000Z</time>
      </trkpt>
      <trkpt lat="35.101902" lon="-117.350008">
        <ele>650.398438</ele>
        <time>2021-02-07T00:35:44.000Z</time>
      </trkpt>
      <trkpt lat="35.101372" lon="-117.349876">
        <ele>649.699219</ele>
        <time>2021-02-07T00:35:48.000Z</time>
      </trkpt>
      <trkpt lat="35.100708" lon="-117.34979">
        <ele>648.699219</ele>
        <time>2021-02-07T00:35:53.000Z</time>
      </trkpt>
      <trkpt lat="35.100049" lon="-117.34973">
        <ele>647.699219</ele>
        <time>2021-02-07T00:35:58.000Z</time>
      </trkpt>
      <trkpt lat="35.099385" lon="-117.34969">
        <ele>646.597656</ele>
        <time>2021-02-07T00:36:03.000Z</time>
      </trkpt>
      <trkpt lat="35.098715" lon="-117.349709">
        <ele>646.097656</ele>
        <time>2021-02-07T00:36:08.000Z</time>
      </trkpt>
      <trkpt lat="35.098178" lon="-117.349753">
        <ele>645.699219</ele>
        <time>2021-02-07T00:36:12.000Z</time>
      </trkpt>
      <trkpt lat="35.09791" lon="-117.349808">
        <ele>645.296875</ele>
        <time>2021-02-07T00:36:14.000Z</time>
      </trkpt>
      <trkpt lat="35.097657" lon="-117.349888">
        <ele>644.796875</ele>
        <time>2021-02-07T00:36:16.000Z</time>
      </trkpt>
      <trkpt lat="35.097211" lon="-117.350035">
        <ele>645.000000</ele>
        <time>2021-02-07T00:36:20.000Z</time>
      </trkpt>
      <trkpt lat="35.097109" lon="-117.350056">
        <ele>645.000000</ele>
        <time>2021-02-07T00:36:21.000Z</time>
      </trkpt>
      <trkpt lat="35.097008" lon="-117.350064">
        <ele>645.199219</ele>
        <time>2021-02-07T00:36:22.000Z</time>
      </trkpt>
      <trkpt lat="35.096905" lon="-117.350062">
        <ele>645.296875</ele>
        <time>2021-02-07T00:36:23.000Z</time>
      </trkpt>
      <trkpt lat="35.09669" lon="-117.350039">
        <ele>645.097656</ele>
        <time>2021-02-07T00:36:25.000Z</time>
      </trkpt>
      <trkpt lat="35.096352" lon="-117.349963">
        <ele>644.500000</ele>
        <time>2021-02-07T00:36:28.000Z</time>
      </trkpt>
      <trkpt lat="35.096001" lon="-117.34985">
        <ele>644.097656</ele>
        <time>2021-02-07T00:36:31.000Z</time>
      </trkpt>
      <trkpt lat="35.09542" lon="-117.349583">
        <ele>643.097656</ele>
        <time>2021-02-07T00:36:36.000Z</time>
      </trkpt>
      <trkpt lat="35.094817" lon="-117.34932">
        <ele>641.898438</ele>
        <time>2021-02-07T00:36:41.000Z</time>
      </trkpt>
      <trkpt lat="35.094191" lon="-117.349091">
        <ele>641.097656</ele>
        <time>2021-02-07T00:36:46.000Z</time>
      </trkpt>
      <trkpt lat="35.093698" lon="-117.348932">
        <ele>640.699219</ele>
        <time>2021-02-07T00:36:50.000Z</time>
      </trkpt>
      <trkpt lat="35.093475" lon="-117.348885">
        <ele>640.199219</ele>
        <time>2021-02-07T00:36:52.000Z</time>
      </trkpt>
      <trkpt lat="35.093175" lon="-117.348852">
        <ele>639.398438</ele>
        <time>2021-02-07T00:36:55.000Z</time>
      </trkpt>
      <trkpt lat="35.092646" lon="-117.34884">
        <ele>638.296875</ele>
        <time>2021-02-07T00:37:01.000Z</time>
      </trkpt>
      <trkpt lat="35.091987" lon="-117.348878">
        <ele>637.699219</ele>
        <time>2021-02-07T00:37:08.000Z</time>
      </trkpt>
      <trkpt lat="35.091389" lon="-117.348894">
        <ele>637.097656</ele>
        <time>2021-02-07T00:37:14.000Z</time>
      </trkpt>
      <trkpt lat="35.090767" lon="-117.348875">
        <ele>636.000000</ele>
        <time>2021-02-07T00:37:20.000Z</time>
      </trkpt>
      <trkpt lat="35.090125" lon="-117.348886">
        <ele>635.000000</ele>
        <time>2021-02-07T00:37:26.000Z</time>
      </trkpt>
      <trkpt lat="35.089464" lon="-117.348893">
        <ele>634.000000</ele>
        <time>2021-02-07T00:37:32.000Z</time>
      </trkpt>
      <trkpt lat="35.088898" lon="-117.348894">
        <ele>633.296875</ele>
        <time>2021-02-07T00:37:37.000Z</time>
      </trkpt>
      <trkpt lat="35.088326" lon="-117.3489">
        <ele>632.296875</ele>
        <time>2021-02-07T00:37:42.000Z</time>
      </trkpt>
      <trkpt lat="35.087752" lon="-117.348891">
        <ele>631.597656</ele>
        <time>2021-02-07T00:37:47.000Z</time>
      </trkpt>
      <trkpt lat="35.08717" lon="-117.348889">
        <ele>630.898438</ele>
        <time>2021-02-07T00:37:52.000Z</time>
      </trkpt>
      <trkpt lat="35.086585" lon="-117.348899">
        <ele>630.097656</ele>
        <time>2021-02-07T00:37:57.000Z</time>
      </trkpt>
      <trkpt lat="35.086004" lon="-117.348935">
        <ele>629.296875</ele>
        <time>2021-02-07T00:38:02.000Z</time>
      </trkpt>
      <trkpt lat="35.085382" lon="-117.348956">
        <ele>628.500000</ele>
        <time>2021-02-07T00:38:08.000Z</time>
      </trkpt>
      <trkpt lat="35.084755" lon="-117.348965">
        <ele>627.398438</ele>
        <time>2021-02-07T00:38:14.000Z</time>
      </trkpt>
      <trkpt lat="35.084244" lon="-117.348955">
        <ele>627.000000</ele>
        <time>2021-02-07T00:38:23.000Z</time>
      </trkpt>
      <trkpt lat="35.084243" lon="-117.348955">
        <ele>626.898438</ele>
        <time>2021-02-07T00:39:09.000Z</time>
      </trkpt>
      <trkpt lat="35.084147" lon="-117.348991">
        <ele>626.898438</ele>
        <time>2021-02-07T00:39:10.000Z</time>
      </trkpt>
      <trkpt lat="35.084129" lon="-117.349008">
        <ele>626.898438</ele>
        <time>2021-02-07T00:39:13.000Z</time>
      </trkpt>
      <trkpt lat="35.084083" lon="-117.349082">
        <ele>626.898438</ele>
        <time>2021-02-07T00:39:14.000Z</time>
      </trkpt>
      <trkpt lat="35.084072" lon="-117.34912">
        <ele>626.898438</ele>
        <time>2021-02-07T00:39:16.000Z</time>
      </trkpt>
      <trkpt lat="35.084064" lon="-117.349215">
        <ele>627.000000</ele>
        <time>2021-02-07T00:39:17.000Z</time>
      </trkpt>
      <trkpt lat="35.084063" lon="-117.349388">
        <ele>627.097656</ele>
        <time>2021-02-07T00:39:20.000Z</time>
      </trkpt>
      <trkpt lat="35.084071" lon="-117.350156">
        <ele>627.597656</ele>
        <time>2021-02-07T00:39:28.000Z</time>
      </trkpt>
      <trkpt lat="35.084071" lon="-117.350979">
        <ele>627.898438</ele>
        <time>2021-02-07T00:39:34.000Z</time>
      </trkpt>
      <trkpt lat="35.084077" lon="-117.351664">
        <ele>627.796875</ele>
        <time>2021-02-07T00:39:39.000Z</time>
      </trkpt>
      <trkpt lat="35.084089" lon="-117.3524">
        <ele>628.398438</ele>
        <time>2021-02-07T00:39:44.000Z</time>
      </trkpt>
      <trkpt lat="35.084099" lon="-117.353163">
        <ele>628.699219</ele>
        <time>2021-02-07T00:39:49.000Z</time>
      </trkpt>
      <trkpt lat="35.084106" lon="-117.353898">
        <ele>629.000000</ele>
        <time>2021-02-07T00:39:54.000Z</time>
      </trkpt>
      <trkpt lat="35.084114" lon="-117.354634">
        <ele>629.597656</ele>
        <time>2021-02-07T00:39:59.000Z</time>
      </trkpt>
      <trkpt lat="35.084123" lon="-117.35539">
        <ele>629.398438</ele>
        <time>2021-02-07T00:40:04.000Z</time>
      </trkpt>
      <trkpt lat="35.084129" lon="-117.356159">
        <ele>629.398438</ele>
        <time>2021-02-07T00:40:09.000Z</time>
      </trkpt>
      <trkpt lat="35.084134" lon="-117.35694">
        <ele>629.398438</ele>
        <time>2021-02-07T00:40:14.000Z</time>
      </trkpt>
      <trkpt lat="35.084142" lon="-117.357738">
        <ele>629.699219</ele>
        <time>2021-02-07T00:40:19.000Z</time>
      </trkpt>
      <trkpt lat="35.084146" lon="-117.358399">
        <ele>630.097656</ele>
        <time>2021-02-07T00:40:23.000Z</time>
      </trkpt>
      <trkpt lat="35.084156" lon="-117.359064">
        <ele>630.296875</ele>
        <time>2021-02-07T00:40:27.000Z</time>
      </trkpt>
      <trkpt lat="35.084163" lon="-117.359725">
        <ele>630.898438</ele>
        <time>2021-02-07T00:40:31.000Z</time>
      </trkpt>
      <trkpt lat="35.084171" lon="-117.36054">
        <ele>631.097656</ele>
        <time>2021-02-07T00:40:36.000Z</time>
      </trkpt>
      <trkpt lat="35.084192" lon="-117.361251">
        <ele>631.500000</ele>
        <time>2021-02-07T00:40:41.000Z</time>
      </trkpt>
      <trkpt lat="35.084195" lon="-117.362073">
        <ele>632.296875</ele>
        <time>2021-02-07T00:40:48.000Z</time>
      </trkpt>
      <trkpt lat="35.084203" lon="-117.362756">
        <ele>632.699219</ele>
        <time>2021-02-07T00:40:53.000Z</time>
      </trkpt>
      <trkpt lat="35.084212" lon="-117.363489">
        <ele>633.699219</ele>
        <time>2021-02-07T00:40:58.000Z</time>
      </trkpt>
      <trkpt lat="35.084216" lon="-117.364199">
        <ele>633.699219</ele>
        <time>2021-02-07T00:41:03.000Z</time>
      </trkpt>
      <trkpt lat="35.08422" lon="-117.36494">
        <ele>634.097656</ele>
        <time>2021-02-07T00:41:08.000Z</time>
      </trkpt>
      <trkpt lat="35.084229" lon="-117.36568">
        <ele>634.296875</ele>
        <time>2021-02-07T00:41:13.000Z</time>
      </trkpt>
      <trkpt lat="35.084235" lon="-117.366242">
        <ele>634.199219</ele>
        <time>2021-02-07T00:41:18.000Z</time>
      </trkpt>
      <trkpt lat="35.084226" lon="-117.366316">
        <ele>634.000000</ele>
        <time>2021-02-07T00:41:19.000Z</time>
      </trkpt>
      <trkpt lat="35.084207" lon="-117.366377">
        <ele>634.097656</ele>
        <time>2021-02-07T00:41:20.000Z</time>
      </trkpt>
      <trkpt lat="35.08418" lon="-117.366428">
        <ele>634.000000</ele>
        <time>2021-02-07T00:41:21.000Z</time>
      </trkpt>
      <trkpt lat="35.084149" lon="-117.366469">
        <ele>634.699219</ele>
        <time>2021-02-07T00:41:23.000Z</time>
      </trkpt>
      <trkpt lat="35.084087" lon="-117.366512">
        <ele>634.398438</ele>
        <time>2021-02-07T00:41:24.000Z</time>
      </trkpt>
      <trkpt lat="35.084056" lon="-117.366522">
        <ele>633.500000</ele>
        <time>2021-02-07T00:41:27.000Z</time>
      </trkpt>
      <trkpt lat="35.083974" lon="-117.366531">
        <ele>633.500000</ele>
        <time>2021-02-07T00:41:28.000Z</time>
      </trkpt>
      <trkpt lat="35.083948" lon="-117.366532">
        <ele>633.597656</ele>
        <time>2021-02-07T00:41:31.000Z</time>
      </trkpt>
      <trkpt lat="35.083869" lon="-117.366527">
        <ele>633.699219</ele>
        <time>2021-02-07T00:41:32.000Z</time>
      </trkpt>
      <trkpt lat="35.083224" lon="-117.366509">
        <ele>633.898438</ele>
        <time>2021-02-07T00:41:49.000Z</time>
      </trkpt>
      <trkpt lat="35.082573" lon="-117.366486">
        <ele>633.097656</ele>
        <time>2021-02-07T00:41:57.000Z</time>
      </trkpt>
      <trkpt lat="35.081902" lon="-117.366462">
        <ele>632.699219</ele>
        <time>2021-02-07T00:42:03.000Z</time>
      </trkpt>
      <trkpt lat="35.081297" lon="-117.366448">
        <ele>631.898438</ele>
        <time>2021-02-07T00:42:08.000Z</time>
      </trkpt>
      <trkpt lat="35.080659" lon="-117.366441">
        <ele>631.398438</ele>
        <time>2021-02-07T00:42:13.000Z</time>
      </trkpt>
      <trkpt lat="35.079999" lon="-117.36643">
        <ele>630.699219</ele>
        <time>2021-02-07T00:42:18.000Z</time>
      </trkpt>
      <trkpt lat="35.079449" lon="-117.366416">
        <ele>630.199219</ele>
        <time>2021-02-07T00:42:22.000Z</time>
      </trkpt>
      <trkpt lat="35.078858" lon="-117.366402">
        <ele>629.898438</ele>
        <time>2021-02-07T00:42:26.000Z</time>
      </trkpt>
      <trkpt lat="35.07824" lon="-117.366398">
        <ele>629.398438</ele>
        <time>2021-02-07T00:42:30.000Z</time>
      </trkpt>
      <trkpt lat="35.077614" lon="-117.366387">
        <ele>629.097656</ele>
        <time>2021-02-07T00:42:34.000Z</time>
      </trkpt>
      <trkpt lat="35.076994" lon="-117.366374">
        <ele>628.898438</ele>
        <time>2021-02-07T00:42:38.000Z</time>
      </trkpt>
      <trkpt lat="35.076379" lon="-117.366361">
        <ele>629.000000</ele>
        <time>2021-02-07T00:42:42.000Z</time>
      </trkpt>
      <trkpt lat="35.075821" lon="-117.36635">
        <ele>628.898438</ele>
        <time>2021-02-07T00:42:46.000Z</time>
      </trkpt>
      <trkpt lat="35.075221" lon="-117.366341">
        <ele>628.296875</ele>
        <time>2021-02-07T00:42:51.000Z</time>
      </trkpt>
      <trkpt lat="35.074596" lon="-117.366328">
        <ele>628.000000</ele>
        <time>2021-02-07T00:42:56.000Z</time>
      </trkpt>
      <trkpt lat="35.073955" lon="-117.366315">
        <ele>627.796875</ele>
        <time>2021-02-07T00:43:01.000Z</time>
      </trkpt>
      <trkpt lat="35.073317" lon="-117.366306">
        <ele>627.699219</ele>
        <time>2021-02-07T00:43:06.000Z</time>
      </trkpt>
      <trkpt lat="35.07267" lon="-117.3663">
        <ele>627.796875</ele>
        <time>2021-02-07T00:43:11.000Z</time>
      </trkpt>
      <trkpt lat="35.072023" lon="-117.366302">
        <ele>627.898438</ele>
        <time>2021-02-07T00:43:16.000Z</time>
      </trkpt>
      <trkpt lat="35.071369" lon="-117.366292">
        <ele>627.898438</ele>
        <time>2021-02-07T00:43:21.000Z</time>
      </trkpt>
      <trkpt lat="35.070703" lon="-117.366282">
        <ele>628.000000</ele>
        <time>2021-02-07T00:43:26.000Z</time>
      </trkpt>
      <trkpt lat="35.070159" lon="-117.366281">
        <ele>627.898438</ele>
        <time>2021-02-07T00:43:30.000Z</time>
      </trkpt>
      <trkpt lat="35.069505" lon="-117.366273">
        <ele>628.398438</ele>
        <time>2021-02-07T00:43:35.000Z</time>
      </trkpt>
      <trkpt lat="35.068912" lon="-117.366261">
        <ele>628.199219</ele>
        <time>2021-02-07T00:43:40.000Z</time>
      </trkpt>
      <trkpt lat="35.068373" lon="-117.366269">
        <ele>628.398438</ele>
        <time>2021-02-07T00:43:44.000Z</time>
      </trkpt>
      <trkpt lat="35.067782" lon="-117.366273">
        <ele>628.898438</ele>
        <time>2021-02-07T00:43:48.000Z</time>
      </trkpt>
      <trkpt lat="35.06713" lon="-117.36628">
        <ele>629.296875</ele>
        <time>2021-02-07T00:43:53.000Z</time>
      </trkpt>
      <trkpt lat="35.066558" lon="-117.366283">
        <ele>629.296875</ele>
        <time>2021-02-07T00:43:58.000Z</time>
      </trkpt>
      <trkpt lat="35.065923" lon="-117.366288">
        <ele>629.500000</ele>
        <time>2021-02-07T00:44:03.000Z</time>
      </trkpt>
      <trkpt lat="35.065379" lon="-117.366302">
        <ele>629.500000</ele>
        <time>2021-02-07T00:44:07.000Z</time>
      </trkpt>
      <trkpt lat="35.064816" lon="-117.366313">
        <ele>629.898438</ele>
        <time>2021-02-07T00:44:11.000Z</time>
      </trkpt>
      <trkpt lat="35.064232" lon="-117.36632">
        <ele>630.296875</ele>
        <time>2021-02-07T00:44:15.000Z</time>
      </trkpt>
      <trkpt lat="35.063634" lon="-117.366327">
        <ele>630.699219</ele>
        <time>2021-02-07T00:44:19.000Z</time>
      </trkpt>
      <trkpt lat="35.063024" lon="-117.366328">
        <ele>631.000000</ele>
        <time>2021-02-07T00:44:23.000Z</time>
      </trkpt>
      <trkpt lat="35.062365" lon="-117.366328">
        <ele>631.500000</ele>
        <time>2021-02-07T00:44:28.000Z</time>
      </trkpt>
      <trkpt lat="35.06174" lon="-117.366341">
        <ele>631.796875</ele>
        <time>2021-02-07T00:44:33.000Z</time>
      </trkpt>
      <trkpt lat="35.061086" lon="-117.366353">
        <ele>632.296875</ele>
        <time>2021-02-07T00:44:38.000Z</time>
      </trkpt>
      <trkpt lat="35.060509" lon="-117.366358">
        <ele>632.597656</ele>
        <time>2021-02-07T00:44:42.000Z</time>
      </trkpt>
      <trkpt lat="35.059939" lon="-117.366364">
        <ele>633.199219</ele>
        <time>2021-02-07T00:44:46.000Z</time>
      </trkpt>
      <trkpt lat="35.059392" lon="-117.366374">
        <ele>633.699219</ele>
        <time>2021-02-07T00:44:50.000Z</time>
      </trkpt>
      <trkpt lat="35.058726" lon="-117.366381">
        <ele>633.796875</ele>
        <time>2021-02-07T00:44:55.000Z</time>
      </trkpt>
      <trkpt lat="35.058064" lon="-117.366389">
        <ele>633.796875</ele>
        <time>2021-02-07T00:45:00.000Z</time>
      </trkpt>
      <trkpt lat="35.057401" lon="-117.366392">
        <ele>633.796875</ele>
        <time>2021-02-07T00:45:05.000Z</time>
      </trkpt>
      <trkpt lat="35.05674" lon="-117.366395">
        <ele>634.097656</ele>
        <time>2021-02-07T00:45:10.000Z</time>
      </trkpt>
      <trkpt lat="35.056074" lon="-117.366399">
        <ele>634.398438</ele>
        <time>2021-02-07T00:45:15.000Z</time>
      </trkpt>
      <trkpt lat="35.0554" lon="-117.366399">
        <ele>634.597656</ele>
        <time>2021-02-07T00:45:20.000Z</time>
      </trkpt>
      <trkpt lat="35.054825" lon="-117.366406">
        <ele>633.898438</ele>
        <time>2021-02-07T00:45:25.000Z</time>
      </trkpt>
      <trkpt lat="35.054198" lon="-117.366402">
        <ele>634.097656</ele>
        <time>2021-02-07T00:45:30.000Z</time>
      </trkpt>
      <trkpt lat="35.053649" lon="-117.366403">
        <ele>634.500000</ele>
        <time>2021-02-07T00:45:34.000Z</time>
      </trkpt>
      <trkpt lat="35.053098" lon="-117.366409">
        <ele>634.296875</ele>
        <time>2021-02-07T00:45:38.000Z</time>
      </trkpt>
      <trkpt lat="35.052441" lon="-117.366421">
        <ele>634.500000</ele>
        <time>2021-02-07T00:45:44.000Z</time>
      </trkpt>
      <trkpt lat="35.051781" lon="-117.366419">
        <ele>634.000000</ele>
        <time>2021-02-07T00:45:51.000Z</time>
      </trkpt>
      <trkpt lat="35.051677" lon="-117.366404">
        <ele>633.898438</ele>
        <time>2021-02-07T00:45:52.000Z</time>
      </trkpt>
      <trkpt lat="35.051571" lon="-117.366379">
        <ele>633.699219</ele>
        <time>2021-02-07T00:45:53.000Z</time>
      </trkpt>
      <trkpt lat="35.051467" lon="-117.366345">
        <ele>633.398438</ele>
        <time>2021-02-07T00:45:54.000Z</time>
      </trkpt>
      <trkpt lat="35.051362" lon="-117.3663">
        <ele>633.097656</ele>
        <time>2021-02-07T00:45:55.000Z</time>
      </trkpt>
      <trkpt lat="35.051259" lon="-117.366248">
        <ele>632.898438</ele>
        <time>2021-02-07T00:45:56.000Z</time>
      </trkpt>
      <trkpt lat="35.050645" lon="-117.365937">
        <ele>631.296875</ele>
        <time>2021-02-07T00:46:02.000Z</time>
      </trkpt>
      <trkpt lat="35.050013" lon="-117.365672">
        <ele>630.097656</ele>
        <time>2021-02-07T00:46:08.000Z</time>
      </trkpt>
      <trkpt lat="35.049811" lon="-117.365557">
        <ele>629.699219</ele>
        <time>2021-02-07T00:46:10.000Z</time>
      </trkpt>
      <trkpt lat="35.049619" lon="-117.365425">
        <ele>629.000000</ele>
        <time>2021-02-07T00:46:12.000Z</time>
      </trkpt>
      <trkpt lat="35.049229" lon="-117.365119">
        <ele>628.000000</ele>
        <time>2021-02-07T00:46:17.000Z</time>
      </trkpt>
      <trkpt lat="35.04915" lon="-117.365072">
        <ele>628.000000</ele>
        <time>2021-02-07T00:46:18.000Z</time>
      </trkpt>
      <trkpt lat="35.049063" lon="-117.365035">
        <ele>628.199219</ele>
        <time>2021-02-07T00:46:19.000Z</time>
      </trkpt>
      <trkpt lat="35.048968" lon="-117.365006">
        <ele>628.199219</ele>
        <time>2021-02-07T00:46:20.000Z</time>
      </trkpt>
      <trkpt lat="35.048324" lon="-117.364823">
        <ele>627.500000</ele>
        <time>2021-02-07T00:46:26.000Z</time>
      </trkpt>
      <trkpt lat="35.04777" lon="-117.364683">
        <ele>627.000000</ele>
        <time>2021-02-07T00:46:31.000Z</time>
      </trkpt>
      <trkpt lat="35.047326" lon="-117.36462">
        <ele>626.796875</ele>
        <time>2021-02-07T00:46:35.000Z</time>
      </trkpt>
      <trkpt lat="35.046725" lon="-117.364592">
        <ele>627.000000</ele>
        <time>2021-02-07T00:46:40.000Z</time>
      </trkpt>
      <trkpt lat="35.046095" lon="-117.364572">
        <ele>626.898438</ele>
        <time>2021-02-07T00:46:45.000Z</time>
      </trkpt>
      <trkpt lat="35.04546" lon="-117.364545">
        <ele>626.796875</ele>
        <time>2021-02-07T00:46:50.000Z</time>
      </trkpt>
      <trkpt lat="35.044819" lon="-117.364522">
        <ele>626.796875</ele>
        <time>2021-02-07T00:46:55.000Z</time>
      </trkpt>
      <trkpt lat="35.044564" lon="-117.364532">
        <ele>626.898438</ele>
        <time>2021-02-07T00:46:57.000Z</time>
      </trkpt>
      <trkpt lat="35.044444" lon="-117.364546">
        <ele>627.000000</ele>
        <time>2021-02-07T00:46:58.000Z</time>
      </trkpt>
      <trkpt lat="35.044333" lon="-117.364571">
        <ele>627.597656</ele>
        <time>2021-02-07T00:46:59.000Z</time>
      </trkpt>
      <trkpt lat="35.04403" lon="-117.364665">
        <ele>628.097656</ele>
        <time>2021-02-07T00:47:02.000Z</time>
      </trkpt>
      <trkpt lat="35.043935" lon="-117.364701">
        <ele>627.699219</ele>
        <time>2021-02-07T00:47:03.000Z</time>
      </trkpt>
      <trkpt lat="35.043846" lon="-117.364744">
        <ele>626.796875</ele>
        <time>2021-02-07T00:47:04.000Z</time>
      </trkpt>
      <trkpt lat="35.043766" lon="-117.364792">
        <ele>626.000000</ele>
        <time>2021-02-07T00:47:05.000Z</time>
      </trkpt>
      <trkpt lat="35.043696" lon="-117.364845">
        <ele>625.796875</ele>
        <time>2021-02-07T00:47:06.000Z</time>
      </trkpt>
      <trkpt lat="35.04363" lon="-117.364906">
        <ele>625.699219</ele>
        <time>2021-02-07T00:47:07.000Z</time>
      </trkpt>
      <trkpt lat="35.043568" lon="-117.364973">
        <ele>625.699219</ele>
        <time>2021-02-07T00:47:08.000Z</time>
      </trkpt>
      <trkpt lat="35.043147" lon="-117.365442">
        <ele>626.398438</ele>
        <time>2021-02-07T00:47:15.000Z</time>
      </trkpt>
      <trkpt lat="35.0431" lon="-117.365519">
        <ele>626.500000</ele>
        <time>2021-02-07T00:47:16.000Z</time>
      </trkpt>
      <trkpt lat="35.043064" lon="-117.365608">
        <ele>626.398438</ele>
        <time>2021-02-07T00:47:17.000Z</time>
      </trkpt>
      <trkpt lat="35.043005" lon="-117.365793">
        <ele>626.296875</ele>
        <time>2021-02-07T00:47:19.000Z</time>
      </trkpt>
      <trkpt lat="35.042901" lon="-117.366143">
        <ele>626.500000</ele>
        <time>2021-02-07T00:47:23.000Z</time>
      </trkpt>
      <trkpt lat="35.042867" lon="-117.366217">
        <ele>626.500000</ele>
        <time>2021-02-07T00:47:24.000Z</time>
      </trkpt>
      <trkpt lat="35.042828" lon="-117.366281">
        <ele>626.597656</ele>
        <time>2021-02-07T00:47:25.000Z</time>
      </trkpt>
      <trkpt lat="35.042785" lon="-117.366328">
        <ele>626.398438</ele>
        <time>2021-02-07T00:47:26.000Z</time>
      </trkpt>
      <trkpt lat="35.042739" lon="-117.366361">
        <ele>626.199219</ele>
        <time>2021-02-07T00:47:27.000Z</time>
      </trkpt>
      <trkpt lat="35.042689" lon="-117.366383">
        <ele>626.296875</ele>
        <time>2021-02-07T00:47:28.000Z</time>
      </trkpt>
      <trkpt lat="35.04264" lon="-117.366397">
        <ele>626.398438</ele>
        <time>2021-02-07T00:47:29.000Z</time>
      </trkpt>
      <trkpt lat="35.042595" lon="-117.366402">
        <ele>626.398438</ele>
        <time>2021-02-07T00:47:31.000Z</time>
      </trkpt>
      <trkpt lat="35.042503" lon="-117.366395">
        <ele>626.398438</ele>
        <time>2021-02-07T00:47:32.000Z</time>
      </trkpt>
      <trkpt lat="35.042123" lon="-117.366362">
        <ele>626.398438</ele>
        <time>2021-02-07T00:47:42.000Z</time>
      </trkpt>
      <trkpt lat="35.041465" lon="-117.36637">
        <ele>627.699219</ele>
        <time>2021-02-07T00:47:56.000Z</time>
      </trkpt>
      <trkpt lat="35.040809" lon="-117.366373">
        <ele>629.097656</ele>
        <time>2021-02-07T00:48:05.000Z</time>
      </trkpt>
      <trkpt lat="35.040196" lon="-117.366367">
        <ele>629.898438</ele>
        <time>2021-02-07T00:48:13.000Z</time>
      </trkpt>
      <trkpt lat="35.039551" lon="-117.366362">
        <ele>630.296875</ele>
        <time>2021-02-07T00:48:21.000Z</time>
      </trkpt>
      <trkpt lat="35.038898" lon="-117.36637">
        <ele>631.000000</ele>
        <time>2021-02-07T00:48:29.000Z</time>
      </trkpt>
      <trkpt lat="35.038278" lon="-117.366382">
        <ele>631.699219</ele>
        <time>2021-02-07T00:48:37.000Z</time>
      </trkpt>
      <trkpt lat="35.037658" lon="-117.366388">
        <ele>632.000000</ele>
        <time>2021-02-07T00:48:48.000Z</time>
      </trkpt>
      <trkpt lat="35.03708" lon="-117.366377">
        <ele>632.097656</ele>
        <time>2021-02-07T00:48:54.000Z</time>
      </trkpt>
      <trkpt lat="35.036521" lon="-117.366381">
        <ele>632.398438</ele>
        <time>2021-02-07T00:48:59.000Z</time>
      </trkpt>
      <trkpt lat="35.035918" lon="-117.366379">
        <ele>632.699219</ele>
        <time>2021-02-07T00:49:04.000Z</time>
      </trkpt>
      <trkpt lat="35.035281" lon="-117.366384">
        <ele>633.097656</ele>
        <time>2021-02-07T00:49:09.000Z</time>
      </trkpt>
      <trkpt lat="35.034624" lon="-117.366383">
        <ele>633.597656</ele>
        <time>2021-02-07T00:49:14.000Z</time>
      </trkpt>
      <trkpt lat="35.033949" lon="-117.366387">
        <ele>633.898438</ele>
        <time>2021-02-07T00:49:19.000Z</time>
      </trkpt>
      <trkpt lat="35.033338" lon="-117.366388">
        <ele>634.500000</ele>
        <time>2021-02-07T00:49:24.000Z</time>
      </trkpt>
      <trkpt lat="35.03277" lon="-117.366387">
        <ele>634.796875</ele>
        <time>2021-02-07T00:49:29.000Z</time>
      </trkpt>
      <trkpt lat="35.032151" lon="-117.366393">
        <ele>635.199219</ele>
        <time>2021-02-07T00:49:34.000Z</time>
      </trkpt>
      <trkpt lat="35.031492" lon="-117.366403">
        <ele>635.796875</ele>
        <time>2021-02-07T00:49:40.000Z</time>
      </trkpt>
      <trkpt lat="35.0309" lon="-117.36642">
        <ele>636.199219</ele>
        <time>2021-02-07T00:49:46.000Z</time>
      </trkpt>
      <trkpt lat="35.030227" lon="-117.366437">
        <ele>636.898438</ele>
        <time>2021-02-07T00:49:53.000Z</time>
      </trkpt>
      <trkpt lat="35.029579" lon="-117.366456">
        <ele>637.699219</ele>
        <time>2021-02-07T00:50:00.000Z</time>
      </trkpt>
      <trkpt lat="35.028954" lon="-117.366469">
        <ele>638.296875</ele>
        <time>2021-02-07T00:50:07.000Z</time>
      </trkpt>
      <trkpt lat="35.028333" lon="-117.366462">
        <ele>638.500000</ele>
        <time>2021-02-07T00:50:14.000Z</time>
      </trkpt>
      <trkpt lat="35.027701" lon="-117.366457">
        <ele>639.199219</ele>
        <time>2021-02-07T00:50:21.000Z</time>
      </trkpt>
      <trkpt lat="35.027072" lon="-117.366458">
        <ele>639.597656</ele>
        <time>2021-02-07T00:50:28.000Z</time>
      </trkpt>
      <trkpt lat="35.026449" lon="-117.366456">
        <ele>640.097656</ele>
        <time>2021-02-07T00:50:35.000Z</time>
      </trkpt>
      <trkpt lat="35.025875" lon="-117.36646">
        <ele>641.097656</ele>
        <time>2021-02-07T00:50:45.000Z</time>
      </trkpt>
      <trkpt lat="35.025875" lon="-117.36646">
        <ele>640.097656</ele>
        <time>2021-02-07T00:50:56.000Z</time>
      </trkpt>
      <trkpt lat="35.025869" lon="-117.366344">
        <ele>639.898438</ele>
        <time>2021-02-07T00:50:57.000Z</time>
      </trkpt>
      <trkpt lat="35.025886" lon="-117.366321">
        <ele>640.398438</ele>
        <time>2021-02-07T00:51:00.000Z</time>
      </trkpt>
      <trkpt lat="35.025927" lon="-117.366255">
        <ele>640.199219</ele>
        <time>2021-02-07T00:51:02.000Z</time>
      </trkpt>
      <trkpt lat="35.025908" lon="-117.366174">
        <ele>639.597656</ele>
        <time>2021-02-07T00:51:17.000Z</time>
      </trkpt>
      <trkpt lat="35.025908" lon="-117.366174">
        <ele>639.597656</ele>
        <time>2021-02-07T00:51:17.000Z</time>
      </trkpt>
    </trkseg>
</trk>
</gpx>